<?xml version="1.0" encoding="UTF-8" standalone="no" ?>
<gpx xmlns="http://www.topografix.com/GPX/1/1" xmlns:xsi="http://www.w3.org/2001/XMLSchema-instance" xsi:schemaLocation="http://www.topografix.com/GPX/1/1 http://www.topografix.com/GPX/1/1/gpx.xsd" version="1.1" creator="VisuGPX - https://www.visugpx.com">
  <metadata>
    <name>Mont Leuze, Descent vers la Trinite</name>
    <desc><![CDATA[Mont Leuze, Descent vers la Trinite]]></desc>
  </metadata>
  <trk>
    <name><![CDATA[HAUSRUNDE2]]></name>
    <trkseg>
      <trkpt lat="43.71415" lon="7.29696">
        <ele>100.6</ele>
        <time>2014-07-06T17:11:41Z</time>
      </trkpt>
      <trkpt lat="43.71417" lon="7.29693">
        <ele>97.71</ele>
        <time>2014-07-06T17:11:55Z</time>
      </trkpt>
      <trkpt lat="43.71417" lon="7.29689">
        <ele>96.27</ele>
        <time>2014-07-06T17:11:59Z</time>
      </trkpt>
      <trkpt lat="43.71423" lon="7.29691">
        <ele>90.98</ele>
        <time>2014-07-06T17:12:08Z</time>
      </trkpt>
      <trkpt lat="43.7142" lon="7.29688">
        <ele>90.5</ele>
        <time>2014-07-06T17:12:21Z</time>
      </trkpt>
      <trkpt lat="43.71421" lon="7.29683">
        <ele>87.62</ele>
        <time>2014-07-06T17:12:33Z</time>
      </trkpt>
      <trkpt lat="43.71421" lon="7.29676">
        <ele>84.25</ele>
        <time>2014-07-06T17:12:46Z</time>
      </trkpt>
      <trkpt lat="43.71421" lon="7.29674">
        <ele>82.33</ele>
        <time>2014-07-06T17:13:02Z</time>
      </trkpt>
      <trkpt lat="43.71423" lon="7.29674">
        <ele>82.81</ele>
        <time>2014-07-06T17:13:14Z</time>
      </trkpt>
      <trkpt lat="43.71423" lon="7.29674">
        <ele>84.73</ele>
        <time>2014-07-06T17:13:32Z</time>
      </trkpt>
      <trkpt lat="43.71424" lon="7.29674">
        <ele>85.21</ele>
        <time>2014-07-06T17:13:36Z</time>
      </trkpt>
      <trkpt lat="43.71429" lon="7.29676">
        <ele>85.21</ele>
        <time>2014-07-06T17:13:40Z</time>
      </trkpt>
      <trkpt lat="43.71452" lon="7.29687">
        <ele>86.66</ele>
        <time>2014-07-06T17:13:52Z</time>
      </trkpt>
      <trkpt lat="43.71459" lon="7.2969">
        <ele>87.14</ele>
        <time>2014-07-06T17:13:55Z</time>
      </trkpt>
      <trkpt lat="43.71468" lon="7.29693">
        <ele>86.18</ele>
        <time>2014-07-06T17:14:07Z</time>
      </trkpt>
      <trkpt lat="43.7148" lon="7.29695">
        <ele>87.62</ele>
        <time>2014-07-06T17:14:17Z</time>
      </trkpt>
      <trkpt lat="43.71508" lon="7.29705">
        <ele>89.54</ele>
        <time>2014-07-06T17:14:30Z</time>
      </trkpt>
      <trkpt lat="43.7153" lon="7.29711">
        <ele>90.5</ele>
        <time>2014-07-06T17:14:41Z</time>
      </trkpt>
      <trkpt lat="43.71551" lon="7.29715">
        <ele>93.87</ele>
        <time>2014-07-06T17:14:51Z</time>
      </trkpt>
      <trkpt lat="43.71559" lon="7.29717">
        <ele>94.83</ele>
        <time>2014-07-06T17:14:55Z</time>
      </trkpt>
      <trkpt lat="43.71592" lon="7.29727">
        <ele>96.27</ele>
        <time>2014-07-06T17:15:10Z</time>
      </trkpt>
      <trkpt lat="43.71614" lon="7.29732">
        <ele>97.71</ele>
        <time>2014-07-06T17:15:21Z</time>
      </trkpt>
      <trkpt lat="43.71647" lon="7.29744">
        <ele>99.15</ele>
        <time>2014-07-06T17:15:37Z</time>
      </trkpt>
      <trkpt lat="43.71674" lon="7.29749">
        <ele>103</ele>
        <time>2014-07-06T17:15:49Z</time>
      </trkpt>
      <trkpt lat="43.71702" lon="7.29757">
        <ele>103.96</ele>
        <time>2014-07-06T17:16:02Z</time>
      </trkpt>
      <trkpt lat="43.71722" lon="7.29767">
        <ele>106.36</ele>
        <time>2014-07-06T17:16:13Z</time>
      </trkpt>
      <trkpt lat="43.71745" lon="7.29809">
        <ele>108.29</ele>
        <time>2014-07-06T17:16:29Z</time>
      </trkpt>
      <trkpt lat="43.71762" lon="7.29838">
        <ele>108.29</ele>
        <time>2014-07-06T17:16:42Z</time>
      </trkpt>
      <trkpt lat="43.71767" lon="7.29845">
        <ele>106.84</ele>
        <time>2014-07-06T17:16:46Z</time>
      </trkpt>
      <trkpt lat="43.7179" lon="7.29848">
        <ele>106.36</ele>
        <time>2014-07-06T17:16:57Z</time>
      </trkpt>
      <trkpt lat="43.718" lon="7.2984">
        <ele>107.81</ele>
        <time>2014-07-06T17:17:02Z</time>
      </trkpt>
      <trkpt lat="43.71827" lon="7.29807">
        <ele>115.98</ele>
        <time>2014-07-06T17:17:17Z</time>
      </trkpt>
      <trkpt lat="43.7183" lon="7.29803">
        <ele>116.94</ele>
        <time>2014-07-06T17:17:19Z</time>
      </trkpt>
      <trkpt lat="43.7185" lon="7.29781">
        <ele>120.78</ele>
        <time>2014-07-06T17:17:30Z</time>
      </trkpt>
      <trkpt lat="43.71874" lon="7.29754">
        <ele>123.19</ele>
        <time>2014-07-06T17:17:45Z</time>
      </trkpt>
      <trkpt lat="43.71896" lon="7.2973">
        <ele>124.15</ele>
        <time>2014-07-06T17:17:59Z</time>
      </trkpt>
      <trkpt lat="43.71917" lon="7.29706">
        <ele>125.11</ele>
        <time>2014-07-06T17:18:11Z</time>
      </trkpt>
      <trkpt lat="43.71919" lon="7.29705">
        <ele>125.11</ele>
        <time>2014-07-06T17:18:12Z</time>
      </trkpt>
      <trkpt lat="43.71926" lon="7.29693">
        <ele>126.55</ele>
        <time>2014-07-06T17:18:17Z</time>
      </trkpt>
      <trkpt lat="43.71943" lon="7.29673">
        <ele>129.43</ele>
        <time>2014-07-06T17:18:27Z</time>
      </trkpt>
      <trkpt lat="43.71967" lon="7.29645">
        <ele>133.76</ele>
        <time>2014-07-06T17:18:41Z</time>
      </trkpt>
      <trkpt lat="43.71998" lon="7.29642">
        <ele>139.05</ele>
        <time>2014-07-06T17:18:56Z</time>
      </trkpt>
      <trkpt lat="43.72023" lon="7.29657">
        <ele>141.45</ele>
        <time>2014-07-06T17:19:09Z</time>
      </trkpt>
      <trkpt lat="43.72047" lon="7.2968">
        <ele>144.34</ele>
        <time>2014-07-06T17:19:23Z</time>
      </trkpt>
      <trkpt lat="43.72075" lon="7.29699">
        <ele>149.62</ele>
        <time>2014-07-06T17:19:38Z</time>
      </trkpt>
      <trkpt lat="43.72099" lon="7.29683">
        <ele>152.03</ele>
        <time>2014-07-06T17:19:50Z</time>
      </trkpt>
      <trkpt lat="43.72119" lon="7.29658">
        <ele>152.03</ele>
        <time>2014-07-06T17:20:02Z</time>
      </trkpt>
      <trkpt lat="43.72134" lon="7.29635">
        <ele>154.91</ele>
        <time>2014-07-06T17:20:13Z</time>
      </trkpt>
      <trkpt lat="43.72146" lon="7.2962">
        <ele>155.87</ele>
        <time>2014-07-06T17:20:21Z</time>
      </trkpt>
      <trkpt lat="43.72159" lon="7.29605">
        <ele>154.43</ele>
        <time>2014-07-06T17:20:30Z</time>
      </trkpt>
      <trkpt lat="43.72171" lon="7.29589">
        <ele>154.43</ele>
        <time>2014-07-06T17:20:39Z</time>
      </trkpt>
      <trkpt lat="43.72201" lon="7.29564">
        <ele>157.79</ele>
        <time>2014-07-06T17:20:56Z</time>
      </trkpt>
      <trkpt lat="43.72214" lon="7.29558">
        <ele>160.68</ele>
        <time>2014-07-06T17:21:03Z</time>
      </trkpt>
      <trkpt lat="43.72239" lon="7.29553">
        <ele>164.04</ele>
        <time>2014-07-06T17:21:16Z</time>
      </trkpt>
      <trkpt lat="43.72266" lon="7.29554">
        <ele>167.41</ele>
        <time>2014-07-06T17:21:30Z</time>
      </trkpt>
      <trkpt lat="43.7229" lon="7.29557">
        <ele>170.77</ele>
        <time>2014-07-06T17:21:42Z</time>
      </trkpt>
      <trkpt lat="43.72315" lon="7.29571">
        <ele>176.06</ele>
        <time>2014-07-06T17:21:55Z</time>
      </trkpt>
      <trkpt lat="43.72336" lon="7.29603">
        <ele>179.9</ele>
        <time>2014-07-06T17:22:09Z</time>
      </trkpt>
      <trkpt lat="43.72357" lon="7.29636">
        <ele>179.9</ele>
        <time>2014-07-06T17:22:24Z</time>
      </trkpt>
      <trkpt lat="43.72384" lon="7.2965">
        <ele>180.87</ele>
        <time>2014-07-06T17:22:38Z</time>
      </trkpt>
      <trkpt lat="43.72414" lon="7.29655">
        <ele>182.79</ele>
        <time>2014-07-06T17:22:52Z</time>
      </trkpt>
      <trkpt lat="43.72438" lon="7.29648">
        <ele>184.71</ele>
        <time>2014-07-06T17:23:03Z</time>
      </trkpt>
      <trkpt lat="43.72465" lon="7.29631">
        <ele>187.11</ele>
        <time>2014-07-06T17:23:17Z</time>
      </trkpt>
      <trkpt lat="43.72489" lon="7.2961">
        <ele>188.08</ele>
        <time>2014-07-06T17:23:30Z</time>
      </trkpt>
      <trkpt lat="43.72508" lon="7.29588">
        <ele>190.96</ele>
        <time>2014-07-06T17:23:42Z</time>
      </trkpt>
      <trkpt lat="43.7253" lon="7.29563">
        <ele>192.4</ele>
        <time>2014-07-06T17:23:56Z</time>
      </trkpt>
      <trkpt lat="43.72549" lon="7.2954">
        <ele>194.32</ele>
        <time>2014-07-06T17:24:08Z</time>
      </trkpt>
      <trkpt lat="43.72575" lon="7.29509">
        <ele>198.17</ele>
        <time>2014-07-06T17:24:24Z</time>
      </trkpt>
      <trkpt lat="43.72596" lon="7.29487">
        <ele>201.05</ele>
        <time>2014-07-06T17:24:37Z</time>
      </trkpt>
      <trkpt lat="43.72619" lon="7.29472">
        <ele>204.42</ele>
        <time>2014-07-06T17:24:49Z</time>
      </trkpt>
      <trkpt lat="43.72646" lon="7.29478">
        <ele>207.3</ele>
        <time>2014-07-06T17:25:02Z</time>
      </trkpt>
      <trkpt lat="43.72682" lon="7.29492">
        <ele>209.7</ele>
        <time>2014-07-06T17:25:16Z</time>
      </trkpt>
      <trkpt lat="43.72717" lon="7.29506">
        <ele>207.78</ele>
        <time>2014-07-06T17:25:27Z</time>
      </trkpt>
      <trkpt lat="43.72762" lon="7.29521">
        <ele>206.82</ele>
        <time>2014-07-06T17:25:39Z</time>
      </trkpt>
      <trkpt lat="43.72811" lon="7.29537">
        <ele>210.19</ele>
        <time>2014-07-06T17:25:53Z</time>
      </trkpt>
      <trkpt lat="43.72854" lon="7.29551">
        <ele>213.55</ele>
        <time>2014-07-06T17:26:07Z</time>
      </trkpt>
      <trkpt lat="43.72888" lon="7.29563">
        <ele>215.95</ele>
        <time>2014-07-06T17:26:21Z</time>
      </trkpt>
      <trkpt lat="43.72919" lon="7.29573">
        <ele>219.8</ele>
        <time>2014-07-06T17:26:36Z</time>
      </trkpt>
      <trkpt lat="43.72947" lon="7.29583">
        <ele>222.68</ele>
        <time>2014-07-06T17:26:50Z</time>
      </trkpt>
      <trkpt lat="43.72976" lon="7.29588">
        <ele>225.57</ele>
        <time>2014-07-06T17:27:04Z</time>
      </trkpt>
      <trkpt lat="43.73004" lon="7.29587">
        <ele>227.01</ele>
        <time>2014-07-06T17:27:17Z</time>
      </trkpt>
      <trkpt lat="43.7304" lon="7.29588">
        <ele>229.41</ele>
        <time>2014-07-06T17:27:34Z</time>
      </trkpt>
      <trkpt lat="43.7305" lon="7.29595">
        <ele>230.85</ele>
        <time>2014-07-06T17:27:41Z</time>
      </trkpt>
      <trkpt lat="43.73051" lon="7.29597">
        <ele>230.85</ele>
        <time>2014-07-06T17:27:42Z</time>
      </trkpt>
      <trkpt lat="43.73053" lon="7.29599">
        <ele>230.85</ele>
        <time>2014-07-06T17:27:43Z</time>
      </trkpt>
      <trkpt lat="43.73062" lon="7.29622">
        <ele>231.33</ele>
        <time>2014-07-06T17:27:52Z</time>
      </trkpt>
      <trkpt lat="43.73064" lon="7.29625">
        <ele>231.81</ele>
        <time>2014-07-06T17:27:53Z</time>
      </trkpt>
      <trkpt lat="43.73066" lon="7.29627">
        <ele>231.81</ele>
        <time>2014-07-06T17:27:54Z</time>
      </trkpt>
      <trkpt lat="43.73067" lon="7.2963">
        <ele>232.3</ele>
        <time>2014-07-06T17:27:55Z</time>
      </trkpt>
      <trkpt lat="43.73068" lon="7.29633">
        <ele>232.3</ele>
        <time>2014-07-06T17:27:56Z</time>
      </trkpt>
      <trkpt lat="43.73069" lon="7.29635">
        <ele>232.78</ele>
        <time>2014-07-06T17:27:57Z</time>
      </trkpt>
      <trkpt lat="43.7307" lon="7.29638">
        <ele>233.26</ele>
        <time>2014-07-06T17:27:58Z</time>
      </trkpt>
      <trkpt lat="43.7307" lon="7.29641">
        <ele>233.74</ele>
        <time>2014-07-06T17:27:59Z</time>
      </trkpt>
      <trkpt lat="43.73075" lon="7.29681">
        <ele>235.18</ele>
        <time>2014-07-06T17:28:13Z</time>
      </trkpt>
      <trkpt lat="43.73075" lon="7.29722">
        <ele>240.95</ele>
        <time>2014-07-06T17:28:28Z</time>
      </trkpt>
      <trkpt lat="43.73072" lon="7.29756">
        <ele>244.79</ele>
        <time>2014-07-06T17:28:40Z</time>
      </trkpt>
      <trkpt lat="43.73066" lon="7.29804">
        <ele>248.16</ele>
        <time>2014-07-06T17:28:57Z</time>
      </trkpt>
      <trkpt lat="43.73061" lon="7.29841">
        <ele>251.52</ele>
        <time>2014-07-06T17:29:10Z</time>
      </trkpt>
      <trkpt lat="43.73051" lon="7.29876">
        <ele>251.52</ele>
        <time>2014-07-06T17:29:23Z</time>
      </trkpt>
      <trkpt lat="43.73041" lon="7.29896">
        <ele>252</ele>
        <time>2014-07-06T17:29:31Z</time>
      </trkpt>
      <trkpt lat="43.73024" lon="7.2992">
        <ele>253.44</ele>
        <time>2014-07-06T17:29:42Z</time>
      </trkpt>
      <trkpt lat="43.73005" lon="7.29951">
        <ele>255.85</ele>
        <time>2014-07-06T17:29:56Z</time>
      </trkpt>
      <trkpt lat="43.73003" lon="7.29954">
        <ele>255.85</ele>
        <time>2014-07-06T17:29:58Z</time>
      </trkpt>
      <trkpt lat="43.73001" lon="7.29956">
        <ele>255.85</ele>
        <time>2014-07-06T17:29:59Z</time>
      </trkpt>
      <trkpt lat="43.73" lon="7.29959">
        <ele>255.85</ele>
        <time>2014-07-06T17:30:00Z</time>
      </trkpt>
      <trkpt lat="43.72979" lon="7.2999">
        <ele>259.21</ele>
        <time>2014-07-06T17:30:15Z</time>
      </trkpt>
      <trkpt lat="43.72965" lon="7.30013">
        <ele>266.42</ele>
        <time>2014-07-06T17:30:27Z</time>
      </trkpt>
      <trkpt lat="43.72954" lon="7.30055">
        <ele>272.67</ele>
        <time>2014-07-06T17:30:42Z</time>
      </trkpt>
      <trkpt lat="43.72955" lon="7.30058">
        <ele>272.19</ele>
        <time>2014-07-06T17:30:43Z</time>
      </trkpt>
      <trkpt lat="43.72956" lon="7.30061">
        <ele>272.67</ele>
        <time>2014-07-06T17:30:44Z</time>
      </trkpt>
      <trkpt lat="43.72957" lon="7.30063">
        <ele>272.67</ele>
        <time>2014-07-06T17:30:45Z</time>
      </trkpt>
      <trkpt lat="43.72958" lon="7.30066">
        <ele>272.67</ele>
        <time>2014-07-06T17:30:46Z</time>
      </trkpt>
      <trkpt lat="43.72959" lon="7.30068">
        <ele>272.67</ele>
        <time>2014-07-06T17:30:47Z</time>
      </trkpt>
      <trkpt lat="43.72959" lon="7.30071">
        <ele>273.15</ele>
        <time>2014-07-06T17:30:48Z</time>
      </trkpt>
      <trkpt lat="43.72968" lon="7.30109">
        <ele>271.23</ele>
        <time>2014-07-06T17:31:02Z</time>
      </trkpt>
      <trkpt lat="43.72982" lon="7.30146">
        <ele>270.27</ele>
        <time>2014-07-06T17:31:15Z</time>
      </trkpt>
      <trkpt lat="43.72991" lon="7.30184">
        <ele>270.27</ele>
        <time>2014-07-06T17:31:28Z</time>
      </trkpt>
      <trkpt lat="43.7299" lon="7.30187">
        <ele>269.79</ele>
        <time>2014-07-06T17:31:29Z</time>
      </trkpt>
      <trkpt lat="43.72991" lon="7.3019">
        <ele>269.79</ele>
        <time>2014-07-06T17:31:30Z</time>
      </trkpt>
      <trkpt lat="43.72991" lon="7.30193">
        <ele>269.79</ele>
        <time>2014-07-06T17:31:31Z</time>
      </trkpt>
      <trkpt lat="43.72991" lon="7.30196">
        <ele>269.79</ele>
        <time>2014-07-06T17:31:32Z</time>
      </trkpt>
      <trkpt lat="43.72989" lon="7.30223">
        <ele>272.67</ele>
        <time>2014-07-06T17:31:41Z</time>
      </trkpt>
      <trkpt lat="43.72982" lon="7.30264">
        <ele>274.59</ele>
        <time>2014-07-06T17:31:54Z</time>
      </trkpt>
      <trkpt lat="43.72949" lon="7.30273">
        <ele>271.23</ele>
        <time>2014-07-06T17:32:05Z</time>
      </trkpt>
      <trkpt lat="43.729" lon="7.3027">
        <ele>265.46</ele>
        <time>2014-07-06T17:32:18Z</time>
      </trkpt>
      <trkpt lat="43.72849" lon="7.30269">
        <ele>259.69</ele>
        <time>2014-07-06T17:32:31Z</time>
      </trkpt>
      <trkpt lat="43.72798" lon="7.3028">
        <ele>251.04</ele>
        <time>2014-07-06T17:32:45Z</time>
      </trkpt>
      <trkpt lat="43.72751" lon="7.30305">
        <ele>247.2</ele>
        <time>2014-07-06T17:32:57Z</time>
      </trkpt>
      <trkpt lat="43.72706" lon="7.30326">
        <ele>247.68</ele>
        <time>2014-07-06T17:33:08Z</time>
      </trkpt>
      <trkpt lat="43.72687" lon="7.30327">
        <ele>246.72</ele>
        <time>2014-07-06T17:33:12Z</time>
      </trkpt>
      <trkpt lat="43.72683" lon="7.30326">
        <ele>246.72</ele>
        <time>2014-07-06T17:33:13Z</time>
      </trkpt>
      <trkpt lat="43.72678" lon="7.30325">
        <ele>246.72</ele>
        <time>2014-07-06T17:33:14Z</time>
      </trkpt>
      <trkpt lat="43.72656" lon="7.30319">
        <ele>246.72</ele>
        <time>2014-07-06T17:33:19Z</time>
      </trkpt>
      <trkpt lat="43.72652" lon="7.30317">
        <ele>246.23</ele>
        <time>2014-07-06T17:33:20Z</time>
      </trkpt>
      <trkpt lat="43.72648" lon="7.30314">
        <ele>246.23</ele>
        <time>2014-07-06T17:33:21Z</time>
      </trkpt>
      <trkpt lat="43.72603" lon="7.30289">
        <ele>245.75</ele>
        <time>2014-07-06T17:33:33Z</time>
      </trkpt>
      <trkpt lat="43.72558" lon="7.30284">
        <ele>247.68</ele>
        <time>2014-07-06T17:33:45Z</time>
      </trkpt>
      <trkpt lat="43.72525" lon="7.303">
        <ele>251.52</ele>
        <time>2014-07-06T17:33:55Z</time>
      </trkpt>
      <trkpt lat="43.7251" lon="7.30317">
        <ele>253.93</ele>
        <time>2014-07-06T17:34:00Z</time>
      </trkpt>
      <trkpt lat="43.72483" lon="7.30325">
        <ele>256.81</ele>
        <time>2014-07-06T17:34:07Z</time>
      </trkpt>
      <trkpt lat="43.72471" lon="7.30324">
        <ele>256.81</ele>
        <time>2014-07-06T17:34:10Z</time>
      </trkpt>
      <trkpt lat="43.72416" lon="7.30321">
        <ele>261.14</ele>
        <time>2014-07-06T17:34:24Z</time>
      </trkpt>
      <trkpt lat="43.72412" lon="7.30323">
        <ele>261.62</ele>
        <time>2014-07-06T17:34:25Z</time>
      </trkpt>
      <trkpt lat="43.72397" lon="7.30331">
        <ele>263.54</ele>
        <time>2014-07-06T17:34:29Z</time>
      </trkpt>
      <trkpt lat="43.72345" lon="7.30354">
        <ele>268.83</ele>
        <time>2014-07-06T17:34:41Z</time>
      </trkpt>
      <trkpt lat="43.72337" lon="7.30357">
        <ele>268.35</ele>
        <time>2014-07-06T17:34:43Z</time>
      </trkpt>
      <trkpt lat="43.72332" lon="7.30358">
        <ele>268.35</ele>
        <time>2014-07-06T17:34:44Z</time>
      </trkpt>
      <trkpt lat="43.72286" lon="7.30377">
        <ele>266.9</ele>
        <time>2014-07-06T17:34:56Z</time>
      </trkpt>
      <trkpt lat="43.72282" lon="7.30377">
        <ele>266.42</ele>
        <time>2014-07-06T17:34:57Z</time>
      </trkpt>
      <trkpt lat="43.72277" lon="7.30378">
        <ele>266.9</ele>
        <time>2014-07-06T17:34:58Z</time>
      </trkpt>
      <trkpt lat="43.72248" lon="7.30375">
        <ele>267.86</ele>
        <time>2014-07-06T17:35:05Z</time>
      </trkpt>
      <trkpt lat="43.72244" lon="7.30374">
        <ele>267.86</ele>
        <time>2014-07-06T17:35:06Z</time>
      </trkpt>
      <trkpt lat="43.72219" lon="7.30365">
        <ele>269.31</ele>
        <time>2014-07-06T17:35:12Z</time>
      </trkpt>
      <trkpt lat="43.72215" lon="7.30362">
        <ele>269.31</ele>
        <time>2014-07-06T17:35:13Z</time>
      </trkpt>
      <trkpt lat="43.7218" lon="7.30337">
        <ele>270.75</ele>
        <time>2014-07-06T17:35:24Z</time>
      </trkpt>
      <trkpt lat="43.72152" lon="7.30314">
        <ele>269.79</ele>
        <time>2014-07-06T17:35:34Z</time>
      </trkpt>
      <trkpt lat="43.72116" lon="7.303">
        <ele>274.59</ele>
        <time>2014-07-06T17:35:46Z</time>
      </trkpt>
      <trkpt lat="43.72091" lon="7.30335">
        <ele>279.88</ele>
        <time>2014-07-06T17:35:57Z</time>
      </trkpt>
      <trkpt lat="43.7209" lon="7.30393">
        <ele>287.57</ele>
        <time>2014-07-06T17:36:10Z</time>
      </trkpt>
      <trkpt lat="43.72091" lon="7.30437">
        <ele>292.86</ele>
        <time>2014-07-06T17:36:21Z</time>
      </trkpt>
      <trkpt lat="43.72069" lon="7.3048">
        <ele>295.26</ele>
        <time>2014-07-06T17:36:35Z</time>
      </trkpt>
      <trkpt lat="43.72038" lon="7.30508">
        <ele>296.7</ele>
        <time>2014-07-06T17:36:48Z</time>
      </trkpt>
      <trkpt lat="43.72002" lon="7.30539">
        <ele>299.11</ele>
        <time>2014-07-06T17:37:02Z</time>
      </trkpt>
      <trkpt lat="43.71986" lon="7.30562">
        <ele>301.99</ele>
        <time>2014-07-06T17:37:10Z</time>
      </trkpt>
      <trkpt lat="43.71954" lon="7.30611">
        <ele>305.36</ele>
        <time>2014-07-06T17:37:24Z</time>
      </trkpt>
      <trkpt lat="43.71934" lon="7.30644">
        <ele>308.72</ele>
        <time>2014-07-06T17:37:34Z</time>
      </trkpt>
      <trkpt lat="43.7191" lon="7.30682">
        <ele>312.09</ele>
        <time>2014-07-06T17:37:46Z</time>
      </trkpt>
      <trkpt lat="43.71898" lon="7.30731">
        <ele>312.09</ele>
        <time>2014-07-06T17:37:58Z</time>
      </trkpt>
      <trkpt lat="43.71909" lon="7.30788">
        <ele>313.53</ele>
        <time>2014-07-06T17:38:12Z</time>
      </trkpt>
      <trkpt lat="43.71929" lon="7.30835">
        <ele>314.01</ele>
        <time>2014-07-06T17:38:25Z</time>
      </trkpt>
      <trkpt lat="43.71929" lon="7.30884">
        <ele>314.97</ele>
        <time>2014-07-06T17:38:37Z</time>
      </trkpt>
      <trkpt lat="43.71905" lon="7.30935">
        <ele>316.41</ele>
        <time>2014-07-06T17:38:50Z</time>
      </trkpt>
      <trkpt lat="43.71882" lon="7.30988">
        <ele>317.85</ele>
        <time>2014-07-06T17:39:04Z</time>
      </trkpt>
      <trkpt lat="43.7185" lon="7.31011">
        <ele>317.37</ele>
        <time>2014-07-06T17:39:15Z</time>
      </trkpt>
      <trkpt lat="43.71812" lon="7.31025">
        <ele>315.93</ele>
        <time>2014-07-06T17:39:28Z</time>
      </trkpt>
      <trkpt lat="43.71774" lon="7.3104">
        <ele>314.01</ele>
        <time>2014-07-06T17:39:40Z</time>
      </trkpt>
      <trkpt lat="43.71732" lon="7.31052">
        <ele>312.09</ele>
        <time>2014-07-06T17:39:54Z</time>
      </trkpt>
      <trkpt lat="43.71708" lon="7.31073">
        <ele>312.57</ele>
        <time>2014-07-06T17:40:05Z</time>
      </trkpt>
      <trkpt lat="43.71698" lon="7.31134">
        <ele>319.3</ele>
        <time>2014-07-06T17:40:18Z</time>
      </trkpt>
      <trkpt lat="43.71696" lon="7.3118">
        <ele>323.14</ele>
        <time>2014-07-06T17:40:29Z</time>
      </trkpt>
      <trkpt lat="43.71682" lon="7.31237">
        <ele>326.5</ele>
        <time>2014-07-06T17:40:43Z</time>
      </trkpt>
      <trkpt lat="43.71671" lon="7.31297">
        <ele>329.39</ele>
        <time>2014-07-06T17:40:57Z</time>
      </trkpt>
      <trkpt lat="43.71671" lon="7.31329">
        <ele>331.79</ele>
        <time>2014-07-06T17:41:05Z</time>
      </trkpt>
      <trkpt lat="43.71672" lon="7.31331">
        <ele>331.79</ele>
        <time>2014-07-06T17:41:06Z</time>
      </trkpt>
      <trkpt lat="43.71674" lon="7.31331">
        <ele>331.79</ele>
        <time>2014-07-06T17:41:07Z</time>
      </trkpt>
      <trkpt lat="43.71677" lon="7.3133">
        <ele>331.79</ele>
        <time>2014-07-06T17:41:08Z</time>
      </trkpt>
      <trkpt lat="43.71679" lon="7.31329">
        <ele>331.31</ele>
        <time>2014-07-06T17:41:09Z</time>
      </trkpt>
      <trkpt lat="43.7168" lon="7.31327">
        <ele>330.83</ele>
        <time>2014-07-06T17:41:10Z</time>
      </trkpt>
      <trkpt lat="43.71681" lon="7.31324">
        <ele>330.35</ele>
        <time>2014-07-06T17:41:11Z</time>
      </trkpt>
      <trkpt lat="43.71681" lon="7.31322">
        <ele>330.35</ele>
        <time>2014-07-06T17:41:12Z</time>
      </trkpt>
      <trkpt lat="43.71681" lon="7.3132">
        <ele>329.87</ele>
        <time>2014-07-06T17:41:13Z</time>
      </trkpt>
      <trkpt lat="43.71682" lon="7.31317">
        <ele>329.87</ele>
        <time>2014-07-06T17:41:14Z</time>
      </trkpt>
      <trkpt lat="43.71683" lon="7.31313">
        <ele>330.35</ele>
        <time>2014-07-06T17:41:16Z</time>
      </trkpt>
      <trkpt lat="43.71687" lon="7.31306">
        <ele>330.83</ele>
        <time>2014-07-06T17:41:20Z</time>
      </trkpt>
      <trkpt lat="43.71688" lon="7.31304">
        <ele>330.83</ele>
        <time>2014-07-06T17:41:21Z</time>
      </trkpt>
      <trkpt lat="43.71688" lon="7.31302">
        <ele>330.83</ele>
        <time>2014-07-06T17:41:22Z</time>
      </trkpt>
      <trkpt lat="43.71689" lon="7.313">
        <ele>330.83</ele>
        <time>2014-07-06T17:41:23Z</time>
      </trkpt>
      <trkpt lat="43.7169" lon="7.31298">
        <ele>330.83</ele>
        <time>2014-07-06T17:41:24Z</time>
      </trkpt>
      <trkpt lat="43.71692" lon="7.31297">
        <ele>331.31</ele>
        <time>2014-07-06T17:41:25Z</time>
      </trkpt>
      <trkpt lat="43.71693" lon="7.31295">
        <ele>331.79</ele>
        <time>2014-07-06T17:41:26Z</time>
      </trkpt>
      <trkpt lat="43.71694" lon="7.31294">
        <ele>332.27</ele>
        <time>2014-07-06T17:41:27Z</time>
      </trkpt>
      <trkpt lat="43.71696" lon="7.31292">
        <ele>332.27</ele>
        <time>2014-07-06T17:41:28Z</time>
      </trkpt>
      <trkpt lat="43.71699" lon="7.31286">
        <ele>333.71</ele>
        <time>2014-07-06T17:41:31Z</time>
      </trkpt>
      <trkpt lat="43.71702" lon="7.3128">
        <ele>333.71</ele>
        <time>2014-07-06T17:41:34Z</time>
      </trkpt>
      <trkpt lat="43.71704" lon="7.31278">
        <ele>333.71</ele>
        <time>2014-07-06T17:41:35Z</time>
      </trkpt>
      <trkpt lat="43.71705" lon="7.31277">
        <ele>334.2</ele>
        <time>2014-07-06T17:41:36Z</time>
      </trkpt>
      <trkpt lat="43.71707" lon="7.31275">
        <ele>334.68</ele>
        <time>2014-07-06T17:41:37Z</time>
      </trkpt>
      <trkpt lat="43.71708" lon="7.31274">
        <ele>335.16</ele>
        <time>2014-07-06T17:41:38Z</time>
      </trkpt>
      <trkpt lat="43.71709" lon="7.31273">
        <ele>335.16</ele>
        <time>2014-07-06T17:41:39Z</time>
      </trkpt>
      <trkpt lat="43.71711" lon="7.31273">
        <ele>335.64</ele>
        <time>2014-07-06T17:41:40Z</time>
      </trkpt>
      <trkpt lat="43.71713" lon="7.31272">
        <ele>335.64</ele>
        <time>2014-07-06T17:41:41Z</time>
      </trkpt>
      <trkpt lat="43.71715" lon="7.31272">
        <ele>336.12</ele>
        <time>2014-07-06T17:41:42Z</time>
      </trkpt>
      <trkpt lat="43.71716" lon="7.31272">
        <ele>336.12</ele>
        <time>2014-07-06T17:41:43Z</time>
      </trkpt>
      <trkpt lat="43.71718" lon="7.31271">
        <ele>335.64</ele>
        <time>2014-07-06T17:41:44Z</time>
      </trkpt>
      <trkpt lat="43.71719" lon="7.31269">
        <ele>335.64</ele>
        <time>2014-07-06T17:41:45Z</time>
      </trkpt>
      <trkpt lat="43.7172" lon="7.31268">
        <ele>335.64</ele>
        <time>2014-07-06T17:41:46Z</time>
      </trkpt>
      <trkpt lat="43.71721" lon="7.31267">
        <ele>335.64</ele>
        <time>2014-07-06T17:41:47Z</time>
      </trkpt>
      <trkpt lat="43.71741" lon="7.31264">
        <ele>339.48</ele>
        <time>2014-07-06T17:42:01Z</time>
      </trkpt>
      <trkpt lat="43.71759" lon="7.31273">
        <ele>342.85</ele>
        <time>2014-07-06T17:42:13Z</time>
      </trkpt>
      <trkpt lat="43.7176" lon="7.31274">
        <ele>342.85</ele>
        <time>2014-07-06T17:42:14Z</time>
      </trkpt>
      <trkpt lat="43.71765" lon="7.31275">
        <ele>344.77</ele>
        <time>2014-07-06T17:42:18Z</time>
      </trkpt>
      <trkpt lat="43.71767" lon="7.31276">
        <ele>345.25</ele>
        <time>2014-07-06T17:42:19Z</time>
      </trkpt>
      <trkpt lat="43.7178" lon="7.31279">
        <ele>350.54</ele>
        <time>2014-07-06T17:42:30Z</time>
      </trkpt>
      <trkpt lat="43.71786" lon="7.31281">
        <ele>351.5</ele>
        <time>2014-07-06T17:42:34Z</time>
      </trkpt>
      <trkpt lat="43.71787" lon="7.31282">
        <ele>351.98</ele>
        <time>2014-07-06T17:42:35Z</time>
      </trkpt>
      <trkpt lat="43.71788" lon="7.31283">
        <ele>352.46</ele>
        <time>2014-07-06T17:42:36Z</time>
      </trkpt>
      <trkpt lat="43.7179" lon="7.31284">
        <ele>352.94</ele>
        <time>2014-07-06T17:42:37Z</time>
      </trkpt>
      <trkpt lat="43.71792" lon="7.31285">
        <ele>353.42</ele>
        <time>2014-07-06T17:42:38Z</time>
      </trkpt>
      <trkpt lat="43.71799" lon="7.31288">
        <ele>354.38</ele>
        <time>2014-07-06T17:42:44Z</time>
      </trkpt>
      <trkpt lat="43.718" lon="7.31289">
        <ele>354.86</ele>
        <time>2014-07-06T17:42:45Z</time>
      </trkpt>
      <trkpt lat="43.71805" lon="7.31291">
        <ele>355.34</ele>
        <time>2014-07-06T17:42:48Z</time>
      </trkpt>
      <trkpt lat="43.71805" lon="7.31293">
        <ele>355.83</ele>
        <time>2014-07-06T17:42:49Z</time>
      </trkpt>
      <trkpt lat="43.71794" lon="7.31293">
        <ele>355.34</ele>
        <time>2014-07-06T17:42:58Z</time>
      </trkpt>
      <trkpt lat="43.71787" lon="7.31291">
        <ele>355.34</ele>
        <time>2014-07-06T17:43:03Z</time>
      </trkpt>
      <trkpt lat="43.71792" lon="7.31305">
        <ele>353.9</ele>
        <time>2014-07-06T17:43:13Z</time>
      </trkpt>
      <trkpt lat="43.71796" lon="7.31307">
        <ele>353.42</ele>
        <time>2014-07-06T17:43:15Z</time>
      </trkpt>
      <trkpt lat="43.71806" lon="7.31314">
        <ele>352.94</ele>
        <time>2014-07-06T17:43:27Z</time>
      </trkpt>
      <trkpt lat="43.71807" lon="7.31313">
        <ele>354.38</ele>
        <time>2014-07-06T17:43:52Z</time>
      </trkpt>
      <trkpt lat="43.71813" lon="7.3132">
        <ele>355.83</ele>
        <time>2014-07-06T17:43:59Z</time>
      </trkpt>
      <trkpt lat="43.71822" lon="7.31329">
        <ele>358.71</ele>
        <time>2014-07-06T17:44:07Z</time>
      </trkpt>
      <trkpt lat="43.71836" lon="7.31342">
        <ele>363.52</ele>
        <time>2014-07-06T17:44:20Z</time>
      </trkpt>
      <trkpt lat="43.71854" lon="7.31356">
        <ele>366.88</ele>
        <time>2014-07-06T17:44:35Z</time>
      </trkpt>
      <trkpt lat="43.71855" lon="7.31357">
        <ele>367.36</ele>
        <time>2014-07-06T17:44:36Z</time>
      </trkpt>
      <trkpt lat="43.71869" lon="7.31369">
        <ele>369.76</ele>
        <time>2014-07-06T17:44:50Z</time>
      </trkpt>
      <trkpt lat="43.71884" lon="7.31384">
        <ele>373.13</ele>
        <time>2014-07-06T17:45:03Z</time>
      </trkpt>
      <trkpt lat="43.71897" lon="7.31394">
        <ele>376.01</ele>
        <time>2014-07-06T17:45:12Z</time>
      </trkpt>
      <trkpt lat="43.719" lon="7.314">
        <ele>376.49</ele>
        <time>2014-07-06T17:45:16Z</time>
      </trkpt>
      <trkpt lat="43.71906" lon="7.31405">
        <ele>377.45</ele>
        <time>2014-07-06T17:45:22Z</time>
      </trkpt>
      <trkpt lat="43.71912" lon="7.31408">
        <ele>378.9</ele>
        <time>2014-07-06T17:45:28Z</time>
      </trkpt>
      <trkpt lat="43.71923" lon="7.31415">
        <ele>380.34</ele>
        <time>2014-07-06T17:45:38Z</time>
      </trkpt>
      <trkpt lat="43.7193" lon="7.31415">
        <ele>380.82</ele>
        <time>2014-07-06T17:45:43Z</time>
      </trkpt>
      <trkpt lat="43.71935" lon="7.31415">
        <ele>380.82</ele>
        <time>2014-07-06T17:45:46Z</time>
      </trkpt>
      <trkpt lat="43.71938" lon="7.31417">
        <ele>381.3</ele>
        <time>2014-07-06T17:45:49Z</time>
      </trkpt>
      <trkpt lat="43.71936" lon="7.31424">
        <ele>381.78</ele>
        <time>2014-07-06T17:45:54Z</time>
      </trkpt>
      <trkpt lat="43.71928" lon="7.31425">
        <ele>382.74</ele>
        <time>2014-07-06T17:46:00Z</time>
      </trkpt>
      <trkpt lat="43.71905" lon="7.31428">
        <ele>384.18</ele>
        <time>2014-07-06T17:46:18Z</time>
      </trkpt>
      <trkpt lat="43.71892" lon="7.31426">
        <ele>383.7</ele>
        <time>2014-07-06T17:46:27Z</time>
      </trkpt>
      <trkpt lat="43.71887" lon="7.31426">
        <ele>382.26</ele>
        <time>2014-07-06T17:46:31Z</time>
      </trkpt>
      <trkpt lat="43.71881" lon="7.31424">
        <ele>379.86</ele>
        <time>2014-07-06T17:46:36Z</time>
      </trkpt>
      <trkpt lat="43.71876" lon="7.31423">
        <ele>379.86</ele>
        <time>2014-07-06T17:46:39Z</time>
      </trkpt>
      <trkpt lat="43.71873" lon="7.31428">
        <ele>378.9</ele>
        <time>2014-07-06T17:46:42Z</time>
      </trkpt>
      <trkpt lat="43.7188" lon="7.31439">
        <ele>381.3</ele>
        <time>2014-07-06T17:46:50Z</time>
      </trkpt>
      <trkpt lat="43.71896" lon="7.31448">
        <ele>384.66</ele>
        <time>2014-07-06T17:47:03Z</time>
      </trkpt>
      <trkpt lat="43.71898" lon="7.31449">
        <ele>385.15</ele>
        <time>2014-07-06T17:47:05Z</time>
      </trkpt>
      <trkpt lat="43.71918" lon="7.31461">
        <ele>388.51</ele>
        <time>2014-07-06T17:47:20Z</time>
      </trkpt>
      <trkpt lat="43.71936" lon="7.31476">
        <ele>392.84</ele>
        <time>2014-07-06T17:47:35Z</time>
      </trkpt>
      <trkpt lat="43.71938" lon="7.31478">
        <ele>392.84</ele>
        <time>2014-07-06T17:47:37Z</time>
      </trkpt>
      <trkpt lat="43.71939" lon="7.31484">
        <ele>393.8</ele>
        <time>2014-07-06T17:47:41Z</time>
      </trkpt>
      <trkpt lat="43.71938" lon="7.31492">
        <ele>396.68</ele>
        <time>2014-07-06T17:47:56Z</time>
      </trkpt>
      <trkpt lat="43.7195" lon="7.3149">
        <ele>398.6</ele>
        <time>2014-07-06T17:48:05Z</time>
      </trkpt>
      <trkpt lat="43.71957" lon="7.31492">
        <ele>401.01</ele>
        <time>2014-07-06T17:48:10Z</time>
      </trkpt>
      <trkpt lat="43.71966" lon="7.3149">
        <ele>402.93</ele>
        <time>2014-07-06T17:48:17Z</time>
      </trkpt>
      <trkpt lat="43.71984" lon="7.31485">
        <ele>405.81</ele>
        <time>2014-07-06T17:48:30Z</time>
      </trkpt>
      <trkpt lat="43.71999" lon="7.31475">
        <ele>408.22</ele>
        <time>2014-07-06T17:48:41Z</time>
      </trkpt>
      <trkpt lat="43.72001" lon="7.31472">
        <ele>408.7</ele>
        <time>2014-07-06T17:48:43Z</time>
      </trkpt>
      <trkpt lat="43.72014" lon="7.31467">
        <ele>410.62</ele>
        <time>2014-07-06T17:48:55Z</time>
      </trkpt>
      <trkpt lat="43.72032" lon="7.31465">
        <ele>410.62</ele>
        <time>2014-07-06T17:49:10Z</time>
      </trkpt>
      <trkpt lat="43.72053" lon="7.31463">
        <ele>414.47</ele>
        <time>2014-07-06T17:49:28Z</time>
      </trkpt>
      <trkpt lat="43.72054" lon="7.31463">
        <ele>414.95</ele>
        <time>2014-07-06T17:49:29Z</time>
      </trkpt>
      <trkpt lat="43.72061" lon="7.31482">
        <ele>417.35</ele>
        <time>2014-07-06T17:49:43Z</time>
      </trkpt>
      <trkpt lat="43.72061" lon="7.31492">
        <ele>418.79</ele>
        <time>2014-07-06T17:49:49Z</time>
      </trkpt>
      <trkpt lat="43.7206" lon="7.31503">
        <ele>419.27</ele>
        <time>2014-07-06T17:49:55Z</time>
      </trkpt>
      <trkpt lat="43.72057" lon="7.3152">
        <ele>419.27</ele>
        <time>2014-07-06T17:50:06Z</time>
      </trkpt>
      <trkpt lat="43.72057" lon="7.31534">
        <ele>420.71</ele>
        <time>2014-07-06T17:50:15Z</time>
      </trkpt>
      <trkpt lat="43.72056" lon="7.31536">
        <ele>420.71</ele>
        <time>2014-07-06T17:50:17Z</time>
      </trkpt>
      <trkpt lat="43.72051" lon="7.31553">
        <ele>421.19</ele>
        <time>2014-07-06T17:50:29Z</time>
      </trkpt>
      <trkpt lat="43.72049" lon="7.31568">
        <ele>421.68</ele>
        <time>2014-07-06T17:50:37Z</time>
      </trkpt>
      <trkpt lat="43.72053" lon="7.31581">
        <ele>421.19</ele>
        <time>2014-07-06T17:50:48Z</time>
      </trkpt>
      <trkpt lat="43.72066" lon="7.31589">
        <ele>426.96</ele>
        <time>2014-07-06T17:51:01Z</time>
      </trkpt>
      <trkpt lat="43.72077" lon="7.31592">
        <ele>435.61</ele>
        <time>2014-07-06T17:51:14Z</time>
      </trkpt>
      <trkpt lat="43.72092" lon="7.31595">
        <ele>442.34</ele>
        <time>2014-07-06T17:51:27Z</time>
      </trkpt>
      <trkpt lat="43.72102" lon="7.31598">
        <ele>446.19</ele>
        <time>2014-07-06T17:51:35Z</time>
      </trkpt>
      <trkpt lat="43.7211" lon="7.31603">
        <ele>447.15</ele>
        <time>2014-07-06T17:51:42Z</time>
      </trkpt>
      <trkpt lat="43.72121" lon="7.31624">
        <ele>448.59</ele>
        <time>2014-07-06T17:51:55Z</time>
      </trkpt>
      <trkpt lat="43.72128" lon="7.3165">
        <ele>449.55</ele>
        <time>2014-07-06T17:52:11Z</time>
      </trkpt>
      <trkpt lat="43.72129" lon="7.31653">
        <ele>450.03</ele>
        <time>2014-07-06T17:52:14Z</time>
      </trkpt>
      <trkpt lat="43.72132" lon="7.31659">
        <ele>450.52</ele>
        <time>2014-07-06T17:52:18Z</time>
      </trkpt>
      <trkpt lat="43.72132" lon="7.31663">
        <ele>450.03</ele>
        <time>2014-07-06T17:52:20Z</time>
      </trkpt>
      <trkpt lat="43.72139" lon="7.31683">
        <ele>453.4</ele>
        <time>2014-07-06T17:52:35Z</time>
      </trkpt>
      <trkpt lat="43.72141" lon="7.31691">
        <ele>455.32</ele>
        <time>2014-07-06T17:52:41Z</time>
      </trkpt>
      <trkpt lat="43.72144" lon="7.31695">
        <ele>455.8</ele>
        <time>2014-07-06T17:52:44Z</time>
      </trkpt>
      <trkpt lat="43.72145" lon="7.31701">
        <ele>455.8</ele>
        <time>2014-07-06T17:52:48Z</time>
      </trkpt>
      <trkpt lat="43.72149" lon="7.31719">
        <ele>455.8</ele>
        <time>2014-07-06T17:52:59Z</time>
      </trkpt>
      <trkpt lat="43.72148" lon="7.31724">
        <ele>456.28</ele>
        <time>2014-07-06T17:53:02Z</time>
      </trkpt>
      <trkpt lat="43.72153" lon="7.31733">
        <ele>450.03</ele>
        <time>2014-07-06T17:53:11Z</time>
      </trkpt>
      <trkpt lat="43.7216" lon="7.31747">
        <ele>450.52</ele>
        <time>2014-07-06T17:53:19Z</time>
      </trkpt>
      <trkpt lat="43.72172" lon="7.31766">
        <ele>454.84</ele>
        <time>2014-07-06T17:53:31Z</time>
      </trkpt>
      <trkpt lat="43.72175" lon="7.31771">
        <ele>456.76</ele>
        <time>2014-07-06T17:53:35Z</time>
      </trkpt>
      <trkpt lat="43.72179" lon="7.31782">
        <ele>459.65</ele>
        <time>2014-07-06T17:53:43Z</time>
      </trkpt>
      <trkpt lat="43.72183" lon="7.31789">
        <ele>461.57</ele>
        <time>2014-07-06T17:53:48Z</time>
      </trkpt>
      <trkpt lat="43.72179" lon="7.31791">
        <ele>462.05</ele>
        <time>2014-07-06T17:53:52Z</time>
      </trkpt>
      <trkpt lat="43.72161" lon="7.31784">
        <ele>465.9</ele>
        <time>2014-07-06T17:54:08Z</time>
      </trkpt>
      <trkpt lat="43.72161" lon="7.31784">
        <ele>465.9</ele>
        <time>2014-07-06T17:54:09Z</time>
      </trkpt>
      <trkpt lat="43.72169" lon="7.318">
        <ele>469.74</ele>
        <time>2014-07-06T17:54:23Z</time>
      </trkpt>
      <trkpt lat="43.72179" lon="7.31818">
        <ele>469.26</ele>
        <time>2014-07-06T17:54:37Z</time>
      </trkpt>
      <trkpt lat="43.72189" lon="7.31832">
        <ele>471.66</ele>
        <time>2014-07-06T17:54:51Z</time>
      </trkpt>
      <trkpt lat="43.7219" lon="7.31835">
        <ele>471.66</ele>
        <time>2014-07-06T17:54:53Z</time>
      </trkpt>
      <trkpt lat="43.72197" lon="7.3185">
        <ele>474.07</ele>
        <time>2014-07-06T17:55:03Z</time>
      </trkpt>
      <trkpt lat="43.72204" lon="7.31868">
        <ele>476.95</ele>
        <time>2014-07-06T17:55:15Z</time>
      </trkpt>
      <trkpt lat="43.72214" lon="7.31889">
        <ele>482.24</ele>
        <time>2014-07-06T17:55:30Z</time>
      </trkpt>
      <trkpt lat="43.72223" lon="7.31906">
        <ele>483.2</ele>
        <time>2014-07-06T17:55:42Z</time>
      </trkpt>
      <trkpt lat="43.72231" lon="7.31924">
        <ele>486.56</ele>
        <time>2014-07-06T17:55:56Z</time>
      </trkpt>
      <trkpt lat="43.72238" lon="7.31936">
        <ele>487.05</ele>
        <time>2014-07-06T17:56:06Z</time>
      </trkpt>
      <trkpt lat="43.7225" lon="7.31961">
        <ele>488.49</ele>
        <time>2014-07-06T17:56:22Z</time>
      </trkpt>
      <trkpt lat="43.72257" lon="7.31977">
        <ele>491.85</ele>
        <time>2014-07-06T17:56:33Z</time>
      </trkpt>
      <trkpt lat="43.72263" lon="7.31992">
        <ele>493.77</ele>
        <time>2014-07-06T17:56:44Z</time>
      </trkpt>
      <trkpt lat="43.72266" lon="7.32003">
        <ele>495.7</ele>
        <time>2014-07-06T17:56:52Z</time>
      </trkpt>
      <trkpt lat="43.72271" lon="7.32015">
        <ele>497.14</ele>
        <time>2014-07-06T17:56:59Z</time>
      </trkpt>
      <trkpt lat="43.72273" lon="7.32023">
        <ele>499.54</ele>
        <time>2014-07-06T17:57:14Z</time>
      </trkpt>
      <trkpt lat="43.72275" lon="7.32027">
        <ele>501.46</ele>
        <time>2014-07-06T17:57:44Z</time>
      </trkpt>
      <trkpt lat="43.72279" lon="7.32039">
        <ele>500.98</ele>
        <time>2014-07-06T17:57:55Z</time>
      </trkpt>
      <trkpt lat="43.72281" lon="7.32052">
        <ele>500.98</ele>
        <time>2014-07-06T17:58:05Z</time>
      </trkpt>
      <trkpt lat="43.72283" lon="7.32062">
        <ele>500.02</ele>
        <time>2014-07-06T17:58:12Z</time>
      </trkpt>
      <trkpt lat="43.72284" lon="7.32065">
        <ele>500.02</ele>
        <time>2014-07-06T17:58:14Z</time>
      </trkpt>
      <trkpt lat="43.72288" lon="7.32086">
        <ele>503.87</ele>
        <time>2014-07-06T17:58:26Z</time>
      </trkpt>
      <trkpt lat="43.72288" lon="7.32091">
        <ele>503.87</ele>
        <time>2014-07-06T17:58:29Z</time>
      </trkpt>
      <trkpt lat="43.72291" lon="7.32106">
        <ele>504.83</ele>
        <time>2014-07-06T17:58:37Z</time>
      </trkpt>
      <trkpt lat="43.72291" lon="7.32109">
        <ele>505.31</ele>
        <time>2014-07-06T17:58:39Z</time>
      </trkpt>
      <trkpt lat="43.72294" lon="7.3213">
        <ele>509.64</ele>
        <time>2014-07-06T17:58:52Z</time>
      </trkpt>
      <trkpt lat="43.72294" lon="7.32141">
        <ele>512.52</ele>
        <time>2014-07-06T17:58:59Z</time>
      </trkpt>
      <trkpt lat="43.72295" lon="7.32148">
        <ele>513.96</ele>
        <time>2014-07-06T17:59:03Z</time>
      </trkpt>
      <trkpt lat="43.72295" lon="7.32177">
        <ele>513</ele>
        <time>2014-07-06T17:59:16Z</time>
      </trkpt>
      <trkpt lat="43.72302" lon="7.32224">
        <ele>511.08</ele>
        <time>2014-07-06T17:59:28Z</time>
      </trkpt>
      <trkpt lat="43.72301" lon="7.32237">
        <ele>512.04</ele>
        <time>2014-07-06T17:59:33Z</time>
      </trkpt>
      <trkpt lat="43.72306" lon="7.32259">
        <ele>513.48</ele>
        <time>2014-07-06T17:59:41Z</time>
      </trkpt>
      <trkpt lat="43.72308" lon="7.32293">
        <ele>515.88</ele>
        <time>2014-07-06T17:59:55Z</time>
      </trkpt>
      <trkpt lat="43.72308" lon="7.32305">
        <ele>517.33</ele>
        <time>2014-07-06T18:00:02Z</time>
      </trkpt>
      <trkpt lat="43.72308" lon="7.32313">
        <ele>518.29</ele>
        <time>2014-07-06T18:00:07Z</time>
      </trkpt>
      <trkpt lat="43.72308" lon="7.32323">
        <ele>518.29</ele>
        <time>2014-07-06T18:00:13Z</time>
      </trkpt>
      <trkpt lat="43.72305" lon="7.32345">
        <ele>518.77</ele>
        <time>2014-07-06T18:00:27Z</time>
      </trkpt>
      <trkpt lat="43.72304" lon="7.32347">
        <ele>519.25</ele>
        <time>2014-07-06T18:00:28Z</time>
      </trkpt>
      <trkpt lat="43.723" lon="7.32361">
        <ele>521.17</ele>
        <time>2014-07-06T18:00:35Z</time>
      </trkpt>
      <trkpt lat="43.72297" lon="7.32371">
        <ele>522.13</ele>
        <time>2014-07-06T18:00:41Z</time>
      </trkpt>
      <trkpt lat="43.72298" lon="7.32399">
        <ele>529.82</ele>
        <time>2014-07-06T18:00:57Z</time>
      </trkpt>
      <trkpt lat="43.72299" lon="7.32404">
        <ele>529.82</ele>
        <time>2014-07-06T18:01:00Z</time>
      </trkpt>
      <trkpt lat="43.72301" lon="7.32412">
        <ele>531.75</ele>
        <time>2014-07-06T18:01:05Z</time>
      </trkpt>
      <trkpt lat="43.72301" lon="7.32419">
        <ele>533.19</ele>
        <time>2014-07-06T18:01:09Z</time>
      </trkpt>
      <trkpt lat="43.72303" lon="7.32433">
        <ele>537.03</ele>
        <time>2014-07-06T18:01:18Z</time>
      </trkpt>
      <trkpt lat="43.72303" lon="7.32444">
        <ele>538.96</ele>
        <time>2014-07-06T18:01:25Z</time>
      </trkpt>
      <trkpt lat="43.72302" lon="7.32459">
        <ele>541.36</ele>
        <time>2014-07-06T18:01:35Z</time>
      </trkpt>
      <trkpt lat="43.72299" lon="7.32482">
        <ele>540.88</ele>
        <time>2014-07-06T18:01:50Z</time>
      </trkpt>
      <trkpt lat="43.72298" lon="7.32487">
        <ele>540.4</ele>
        <time>2014-07-06T18:01:53Z</time>
      </trkpt>
      <trkpt lat="43.72295" lon="7.325">
        <ele>539.44</ele>
        <time>2014-07-06T18:02:01Z</time>
      </trkpt>
      <trkpt lat="43.72292" lon="7.32511">
        <ele>539.92</ele>
        <time>2014-07-06T18:02:07Z</time>
      </trkpt>
      <trkpt lat="43.72291" lon="7.3252">
        <ele>540.4</ele>
        <time>2014-07-06T18:02:12Z</time>
      </trkpt>
      <trkpt lat="43.7229" lon="7.32539">
        <ele>540.4</ele>
        <time>2014-07-06T18:02:22Z</time>
      </trkpt>
      <trkpt lat="43.7229" lon="7.32546">
        <ele>542.8</ele>
        <time>2014-07-06T18:02:33Z</time>
      </trkpt>
      <trkpt lat="43.72291" lon="7.3255">
        <ele>543.76</ele>
        <time>2014-07-06T18:02:35Z</time>
      </trkpt>
      <trkpt lat="43.72309" lon="7.32579">
        <ele>544.72</ele>
        <time>2014-07-06T18:02:47Z</time>
      </trkpt>
      <trkpt lat="43.72311" lon="7.3258">
        <ele>545.69</ele>
        <time>2014-07-06T18:02:49Z</time>
      </trkpt>
      <trkpt lat="43.72329" lon="7.32603">
        <ele>550.97</ele>
        <time>2014-07-06T18:03:04Z</time>
      </trkpt>
      <trkpt lat="43.72352" lon="7.32642">
        <ele>548.09</ele>
        <time>2014-07-06T18:03:16Z</time>
      </trkpt>
      <trkpt lat="43.72391" lon="7.32699">
        <ele>546.17</ele>
        <time>2014-07-06T18:03:29Z</time>
      </trkpt>
      <trkpt lat="43.72398" lon="7.32709">
        <ele>546.17</ele>
        <time>2014-07-06T18:03:31Z</time>
      </trkpt>
      <trkpt lat="43.724" lon="7.32714">
        <ele>546.17</ele>
        <time>2014-07-06T18:03:32Z</time>
      </trkpt>
      <trkpt lat="43.72401" lon="7.3272">
        <ele>546.65</ele>
        <time>2014-07-06T18:03:33Z</time>
      </trkpt>
      <trkpt lat="43.72402" lon="7.32727">
        <ele>547.13</ele>
        <time>2014-07-06T18:03:34Z</time>
      </trkpt>
      <trkpt lat="43.72401" lon="7.32733">
        <ele>547.13</ele>
        <time>2014-07-06T18:03:35Z</time>
      </trkpt>
      <trkpt lat="43.724" lon="7.3274">
        <ele>547.13</ele>
        <time>2014-07-06T18:03:36Z</time>
      </trkpt>
      <trkpt lat="43.72397" lon="7.32753">
        <ele>547.13</ele>
        <time>2014-07-06T18:03:38Z</time>
      </trkpt>
      <trkpt lat="43.72395" lon="7.32758">
        <ele>546.65</ele>
        <time>2014-07-06T18:03:39Z</time>
      </trkpt>
      <trkpt lat="43.72393" lon="7.32765">
        <ele>547.13</ele>
        <time>2014-07-06T18:03:40Z</time>
      </trkpt>
      <trkpt lat="43.72388" lon="7.32786">
        <ele>546.65</ele>
        <time>2014-07-06T18:03:43Z</time>
      </trkpt>
      <trkpt lat="43.72386" lon="7.32793">
        <ele>546.65</ele>
        <time>2014-07-06T18:03:44Z</time>
      </trkpt>
      <trkpt lat="43.72384" lon="7.328">
        <ele>546.65</ele>
        <time>2014-07-06T18:03:45Z</time>
      </trkpt>
      <trkpt lat="43.72381" lon="7.32807">
        <ele>546.65</ele>
        <time>2014-07-06T18:03:46Z</time>
      </trkpt>
      <trkpt lat="43.72378" lon="7.32814">
        <ele>546.17</ele>
        <time>2014-07-06T18:03:47Z</time>
      </trkpt>
      <trkpt lat="43.72374" lon="7.3282">
        <ele>546.17</ele>
        <time>2014-07-06T18:03:48Z</time>
      </trkpt>
      <trkpt lat="43.72366" lon="7.32831">
        <ele>545.69</ele>
        <time>2014-07-06T18:03:50Z</time>
      </trkpt>
      <trkpt lat="43.72349" lon="7.32853">
        <ele>544.24</ele>
        <time>2014-07-06T18:03:54Z</time>
      </trkpt>
      <trkpt lat="43.72346" lon="7.3286">
        <ele>544.24</ele>
        <time>2014-07-06T18:03:55Z</time>
      </trkpt>
      <trkpt lat="43.7234" lon="7.32875">
        <ele>543.76</ele>
        <time>2014-07-06T18:03:57Z</time>
      </trkpt>
      <trkpt lat="43.72336" lon="7.3289">
        <ele>543.28</ele>
        <time>2014-07-06T18:03:59Z</time>
      </trkpt>
      <trkpt lat="43.72332" lon="7.32897">
        <ele>542.8</ele>
        <time>2014-07-06T18:04:00Z</time>
      </trkpt>
      <trkpt lat="43.72327" lon="7.32902">
        <ele>542.32</ele>
        <time>2014-07-06T18:04:01Z</time>
      </trkpt>
      <trkpt lat="43.72312" lon="7.32918">
        <ele>541.36</ele>
        <time>2014-07-06T18:04:04Z</time>
      </trkpt>
      <trkpt lat="43.72308" lon="7.32924">
        <ele>540.88</ele>
        <time>2014-07-06T18:04:05Z</time>
      </trkpt>
      <trkpt lat="43.72305" lon="7.32931">
        <ele>540.4</ele>
        <time>2014-07-06T18:04:06Z</time>
      </trkpt>
      <trkpt lat="43.72302" lon="7.32939">
        <ele>540.4</ele>
        <time>2014-07-06T18:04:07Z</time>
      </trkpt>
      <trkpt lat="43.723" lon="7.32947">
        <ele>539.92</ele>
        <time>2014-07-06T18:04:08Z</time>
      </trkpt>
      <trkpt lat="43.72299" lon="7.32955">
        <ele>539.44</ele>
        <time>2014-07-06T18:04:09Z</time>
      </trkpt>
      <trkpt lat="43.72299" lon="7.32963">
        <ele>538.96</ele>
        <time>2014-07-06T18:04:10Z</time>
      </trkpt>
      <trkpt lat="43.72299" lon="7.3297">
        <ele>538.48</ele>
        <time>2014-07-06T18:04:11Z</time>
      </trkpt>
      <trkpt lat="43.72301" lon="7.32977">
        <ele>537.99</ele>
        <time>2014-07-06T18:04:12Z</time>
      </trkpt>
      <trkpt lat="43.72304" lon="7.32982">
        <ele>537.99</ele>
        <time>2014-07-06T18:04:13Z</time>
      </trkpt>
      <trkpt lat="43.72307" lon="7.32986">
        <ele>538.48</ele>
        <time>2014-07-06T18:04:14Z</time>
      </trkpt>
      <trkpt lat="43.7231" lon="7.32988">
        <ele>538.48</ele>
        <time>2014-07-06T18:04:15Z</time>
      </trkpt>
      <trkpt lat="43.72314" lon="7.3299">
        <ele>538.48</ele>
        <time>2014-07-06T18:04:16Z</time>
      </trkpt>
      <trkpt lat="43.72317" lon="7.32991">
        <ele>538.48</ele>
        <time>2014-07-06T18:04:17Z</time>
      </trkpt>
      <trkpt lat="43.72319" lon="7.32994">
        <ele>538.96</ele>
        <time>2014-07-06T18:04:18Z</time>
      </trkpt>
      <trkpt lat="43.72321" lon="7.32996">
        <ele>539.44</ele>
        <time>2014-07-06T18:04:19Z</time>
      </trkpt>
      <trkpt lat="43.72323" lon="7.32997">
        <ele>539.44</ele>
        <time>2014-07-06T18:04:20Z</time>
      </trkpt>
      <trkpt lat="43.72325" lon="7.32998">
        <ele>539.44</ele>
        <time>2014-07-06T18:04:21Z</time>
      </trkpt>
      <trkpt lat="43.72348" lon="7.33036">
        <ele>539.92</ele>
        <time>2014-07-06T18:04:31Z</time>
      </trkpt>
      <trkpt lat="43.72349" lon="7.33043">
        <ele>539.44</ele>
        <time>2014-07-06T18:04:32Z</time>
      </trkpt>
      <trkpt lat="43.72351" lon="7.33049">
        <ele>538.96</ele>
        <time>2014-07-06T18:04:33Z</time>
      </trkpt>
      <trkpt lat="43.72355" lon="7.33061">
        <ele>537.99</ele>
        <time>2014-07-06T18:04:35Z</time>
      </trkpt>
      <trkpt lat="43.72357" lon="7.33068">
        <ele>537.51</ele>
        <time>2014-07-06T18:04:36Z</time>
      </trkpt>
      <trkpt lat="43.72364" lon="7.33081">
        <ele>537.03</ele>
        <time>2014-07-06T18:04:38Z</time>
      </trkpt>
      <trkpt lat="43.72382" lon="7.33107">
        <ele>536.07</ele>
        <time>2014-07-06T18:04:42Z</time>
      </trkpt>
      <trkpt lat="43.72389" lon="7.3312">
        <ele>535.11</ele>
        <time>2014-07-06T18:04:44Z</time>
      </trkpt>
      <trkpt lat="43.72392" lon="7.33126">
        <ele>534.63</ele>
        <time>2014-07-06T18:04:45Z</time>
      </trkpt>
      <trkpt lat="43.72394" lon="7.33133">
        <ele>534.63</ele>
        <time>2014-07-06T18:04:46Z</time>
      </trkpt>
      <trkpt lat="43.72395" lon="7.33139">
        <ele>534.63</ele>
        <time>2014-07-06T18:04:47Z</time>
      </trkpt>
      <trkpt lat="43.72396" lon="7.33145">
        <ele>534.63</ele>
        <time>2014-07-06T18:04:48Z</time>
      </trkpt>
      <trkpt lat="43.72405" lon="7.33188">
        <ele>538.48</ele>
        <time>2014-07-06T18:04:58Z</time>
      </trkpt>
      <trkpt lat="43.72405" lon="7.33191">
        <ele>538.96</ele>
        <time>2014-07-06T18:04:59Z</time>
      </trkpt>
      <trkpt lat="43.72426" lon="7.33225">
        <ele>543.28</ele>
        <time>2014-07-06T18:05:11Z</time>
      </trkpt>
      <trkpt lat="43.72453" lon="7.33266">
        <ele>545.69</ele>
        <time>2014-07-06T18:05:26Z</time>
      </trkpt>
      <trkpt lat="43.72455" lon="7.33269">
        <ele>546.17</ele>
        <time>2014-07-06T18:05:27Z</time>
      </trkpt>
      <trkpt lat="43.72456" lon="7.33272">
        <ele>546.65</ele>
        <time>2014-07-06T18:05:28Z</time>
      </trkpt>
      <trkpt lat="43.72459" lon="7.33274">
        <ele>547.13</ele>
        <time>2014-07-06T18:05:29Z</time>
      </trkpt>
      <trkpt lat="43.72461" lon="7.33275">
        <ele>547.61</ele>
        <time>2014-07-06T18:05:30Z</time>
      </trkpt>
      <trkpt lat="43.72464" lon="7.33276">
        <ele>548.09</ele>
        <time>2014-07-06T18:05:31Z</time>
      </trkpt>
      <trkpt lat="43.72495" lon="7.3329">
        <ele>547.61</ele>
        <time>2014-07-06T18:05:43Z</time>
      </trkpt>
      <trkpt lat="43.725" lon="7.3329">
        <ele>547.61</ele>
        <time>2014-07-06T18:05:44Z</time>
      </trkpt>
      <trkpt lat="43.72504" lon="7.33291">
        <ele>547.13</ele>
        <time>2014-07-06T18:05:45Z</time>
      </trkpt>
      <trkpt lat="43.72509" lon="7.33293">
        <ele>546.65</ele>
        <time>2014-07-06T18:05:46Z</time>
      </trkpt>
      <trkpt lat="43.72513" lon="7.33296">
        <ele>546.17</ele>
        <time>2014-07-06T18:05:47Z</time>
      </trkpt>
      <trkpt lat="43.72518" lon="7.333">
        <ele>545.2</ele>
        <time>2014-07-06T18:05:48Z</time>
      </trkpt>
      <trkpt lat="43.72526" lon="7.33308">
        <ele>543.28</ele>
        <time>2014-07-06T18:05:50Z</time>
      </trkpt>
      <trkpt lat="43.72528" lon="7.33314">
        <ele>542.32</ele>
        <time>2014-07-06T18:05:51Z</time>
      </trkpt>
      <trkpt lat="43.7253" lon="7.33323">
        <ele>540.88</ele>
        <time>2014-07-06T18:05:53Z</time>
      </trkpt>
      <trkpt lat="43.72539" lon="7.33344">
        <ele>537.51</ele>
        <time>2014-07-06T18:05:56Z</time>
      </trkpt>
      <trkpt lat="43.72544" lon="7.33352">
        <ele>536.55</ele>
        <time>2014-07-06T18:05:57Z</time>
      </trkpt>
      <trkpt lat="43.72548" lon="7.3336">
        <ele>535.59</ele>
        <time>2014-07-06T18:05:58Z</time>
      </trkpt>
      <trkpt lat="43.7255" lon="7.33369">
        <ele>535.59</ele>
        <time>2014-07-06T18:05:59Z</time>
      </trkpt>
      <trkpt lat="43.72552" lon="7.33378">
        <ele>535.59</ele>
        <time>2014-07-06T18:06:00Z</time>
      </trkpt>
      <trkpt lat="43.72554" lon="7.33385">
        <ele>535.11</ele>
        <time>2014-07-06T18:06:01Z</time>
      </trkpt>
      <trkpt lat="43.72556" lon="7.33392">
        <ele>535.11</ele>
        <time>2014-07-06T18:06:02Z</time>
      </trkpt>
      <trkpt lat="43.72579" lon="7.33441">
        <ele>537.03</ele>
        <time>2014-07-06T18:06:13Z</time>
      </trkpt>
      <trkpt lat="43.72592" lon="7.33473">
        <ele>538.48</ele>
        <time>2014-07-06T18:06:25Z</time>
      </trkpt>
      <trkpt lat="43.72593" lon="7.33473">
        <ele>537.51</ele>
        <time>2014-07-06T18:07:04Z</time>
      </trkpt>
      <trkpt lat="43.72603" lon="7.33494">
        <ele>537.99</ele>
        <time>2014-07-06T18:07:20Z</time>
      </trkpt>
      <trkpt lat="43.72629" lon="7.33545">
        <ele>537.51</ele>
        <time>2014-07-06T18:07:32Z</time>
      </trkpt>
      <trkpt lat="43.72619" lon="7.33526">
        <ele>536.55</ele>
        <time>2014-07-06T18:07:39Z</time>
      </trkpt>
      <trkpt lat="43.72616" lon="7.3352">
        <ele>536.55</ele>
        <time>2014-07-06T18:07:41Z</time>
      </trkpt>
      <trkpt lat="43.72622" lon="7.33518">
        <ele>537.03</ele>
        <time>2014-07-06T18:07:46Z</time>
      </trkpt>
      <trkpt lat="43.7263" lon="7.33529">
        <ele>537.99</ele>
        <time>2014-07-06T18:07:50Z</time>
      </trkpt>
      <trkpt lat="43.72646" lon="7.3356">
        <ele>540.4</ele>
        <time>2014-07-06T18:08:00Z</time>
      </trkpt>
      <trkpt lat="43.7266" lon="7.33588">
        <ele>543.28</ele>
        <time>2014-07-06T18:08:11Z</time>
      </trkpt>
      <trkpt lat="43.72661" lon="7.33591">
        <ele>544.24</ele>
        <time>2014-07-06T18:08:13Z</time>
      </trkpt>
      <trkpt lat="43.72672" lon="7.33611">
        <ele>543.76</ele>
        <time>2014-07-06T18:08:24Z</time>
      </trkpt>
      <trkpt lat="43.72677" lon="7.33616">
        <ele>543.28</ele>
        <time>2014-07-06T18:08:27Z</time>
      </trkpt>
      <trkpt lat="43.7268" lon="7.33622">
        <ele>542.32</ele>
        <time>2014-07-06T18:08:34Z</time>
      </trkpt>
      <trkpt lat="43.72689" lon="7.33633">
        <ele>541.84</ele>
        <time>2014-07-06T18:08:41Z</time>
      </trkpt>
      <trkpt lat="43.72698" lon="7.33642">
        <ele>541.36</ele>
        <time>2014-07-06T18:08:50Z</time>
      </trkpt>
      <trkpt lat="43.72702" lon="7.33647">
        <ele>542.8</ele>
        <time>2014-07-06T18:09:00Z</time>
      </trkpt>
      <trkpt lat="43.72707" lon="7.33656">
        <ele>541.84</ele>
        <time>2014-07-06T18:09:11Z</time>
      </trkpt>
      <trkpt lat="43.72709" lon="7.33668">
        <ele>540.88</ele>
        <time>2014-07-06T18:09:16Z</time>
      </trkpt>
      <trkpt lat="43.72714" lon="7.33676">
        <ele>539.92</ele>
        <time>2014-07-06T18:09:19Z</time>
      </trkpt>
      <trkpt lat="43.72724" lon="7.33692">
        <ele>537.99</ele>
        <time>2014-07-06T18:09:29Z</time>
      </trkpt>
      <trkpt lat="43.72725" lon="7.33695">
        <ele>538.48</ele>
        <time>2014-07-06T18:09:31Z</time>
      </trkpt>
      <trkpt lat="43.72725" lon="7.337">
        <ele>539.44</ele>
        <time>2014-07-06T18:09:34Z</time>
      </trkpt>
      <trkpt lat="43.72729" lon="7.33721">
        <ele>541.36</ele>
        <time>2014-07-06T18:09:42Z</time>
      </trkpt>
      <trkpt lat="43.7273" lon="7.33731">
        <ele>542.32</ele>
        <time>2014-07-06T18:09:45Z</time>
      </trkpt>
      <trkpt lat="43.72732" lon="7.33737">
        <ele>543.76</ele>
        <time>2014-07-06T18:09:47Z</time>
      </trkpt>
      <trkpt lat="43.72757" lon="7.33761">
        <ele>545.69</ele>
        <time>2014-07-06T18:09:57Z</time>
      </trkpt>
      <trkpt lat="43.72772" lon="7.33767">
        <ele>543.76</ele>
        <time>2014-07-06T18:10:01Z</time>
      </trkpt>
      <trkpt lat="43.72777" lon="7.33767">
        <ele>543.28</ele>
        <time>2014-07-06T18:10:02Z</time>
      </trkpt>
      <trkpt lat="43.72799" lon="7.33775">
        <ele>541.36</ele>
        <time>2014-07-06T18:10:09Z</time>
      </trkpt>
      <trkpt lat="43.72802" lon="7.33775">
        <ele>540.4</ele>
        <time>2014-07-06T18:10:10Z</time>
      </trkpt>
      <trkpt lat="43.72807" lon="7.33776">
        <ele>537.51</ele>
        <time>2014-07-06T18:10:14Z</time>
      </trkpt>
      <trkpt lat="43.72812" lon="7.33786">
        <ele>535.11</ele>
        <time>2014-07-06T18:10:19Z</time>
      </trkpt>
      <trkpt lat="43.72827" lon="7.33781">
        <ele>534.15</ele>
        <time>2014-07-06T18:10:27Z</time>
      </trkpt>
      <trkpt lat="43.72831" lon="7.33781">
        <ele>534.15</ele>
        <time>2014-07-06T18:10:31Z</time>
      </trkpt>
      <trkpt lat="43.72835" lon="7.33766">
        <ele>534.63</ele>
        <time>2014-07-06T18:10:37Z</time>
      </trkpt>
      <trkpt lat="43.72866" lon="7.33758">
        <ele>534.15</ele>
        <time>2014-07-06T18:10:49Z</time>
      </trkpt>
      <trkpt lat="43.72897" lon="7.33756">
        <ele>533.19</ele>
        <time>2014-07-06T18:10:59Z</time>
      </trkpt>
      <trkpt lat="43.72904" lon="7.33753">
        <ele>533.67</ele>
        <time>2014-07-06T18:11:09Z</time>
      </trkpt>
      <trkpt lat="43.72905" lon="7.33751">
        <ele>533.19</ele>
        <time>2014-07-06T18:11:10Z</time>
      </trkpt>
      <trkpt lat="43.72906" lon="7.33749">
        <ele>533.19</ele>
        <time>2014-07-06T18:11:11Z</time>
      </trkpt>
      <trkpt lat="43.72907" lon="7.33747">
        <ele>532.71</ele>
        <time>2014-07-06T18:11:12Z</time>
      </trkpt>
      <trkpt lat="43.72907" lon="7.33745">
        <ele>532.71</ele>
        <time>2014-07-06T18:11:13Z</time>
      </trkpt>
      <trkpt lat="43.72907" lon="7.33742">
        <ele>532.71</ele>
        <time>2014-07-06T18:11:14Z</time>
      </trkpt>
      <trkpt lat="43.72908" lon="7.33737">
        <ele>532.71</ele>
        <time>2014-07-06T18:11:15Z</time>
      </trkpt>
      <trkpt lat="43.72909" lon="7.33732">
        <ele>532.23</ele>
        <time>2014-07-06T18:11:16Z</time>
      </trkpt>
      <trkpt lat="43.72909" lon="7.33727">
        <ele>531.75</ele>
        <time>2014-07-06T18:11:17Z</time>
      </trkpt>
      <trkpt lat="43.72912" lon="7.3371">
        <ele>533.19</ele>
        <time>2014-07-06T18:11:25Z</time>
      </trkpt>
      <trkpt lat="43.72911" lon="7.33714">
        <ele>532.71</ele>
        <time>2014-07-06T18:11:30Z</time>
      </trkpt>
      <trkpt lat="43.72911" lon="7.33716">
        <ele>532.23</ele>
        <time>2014-07-06T18:11:31Z</time>
      </trkpt>
      <trkpt lat="43.72911" lon="7.33719">
        <ele>531.75</ele>
        <time>2014-07-06T18:11:33Z</time>
      </trkpt>
      <trkpt lat="43.7291" lon="7.3372">
        <ele>531.75</ele>
        <time>2014-07-06T18:11:34Z</time>
      </trkpt>
      <trkpt lat="43.7291" lon="7.33722">
        <ele>531.27</ele>
        <time>2014-07-06T18:11:35Z</time>
      </trkpt>
      <trkpt lat="43.72905" lon="7.33743">
        <ele>533.67</ele>
        <time>2014-07-06T18:11:50Z</time>
      </trkpt>
      <trkpt lat="43.72907" lon="7.33747">
        <ele>533.67</ele>
        <time>2014-07-06T18:11:55Z</time>
      </trkpt>
      <trkpt lat="43.72909" lon="7.33751">
        <ele>533.19</ele>
        <time>2014-07-06T18:11:57Z</time>
      </trkpt>
      <trkpt lat="43.7291" lon="7.33752">
        <ele>533.67</ele>
        <time>2014-07-06T18:12:07Z</time>
      </trkpt>
      <trkpt lat="43.7291" lon="7.33752">
        <ele>533.67</ele>
        <time>2014-07-06T18:12:33Z</time>
      </trkpt>
      <trkpt lat="43.72911" lon="7.33753">
        <ele>533.67</ele>
        <time>2014-07-06T18:13:05Z</time>
      </trkpt>
      <trkpt lat="43.72912" lon="7.33753">
        <ele>534.63</ele>
        <time>2014-07-06T18:13:41Z</time>
      </trkpt>
      <trkpt lat="43.72913" lon="7.33754">
        <ele>534.63</ele>
        <time>2014-07-06T18:14:13Z</time>
      </trkpt>
      <trkpt lat="43.72912" lon="7.33754">
        <ele>535.59</ele>
        <time>2014-07-06T18:14:33Z</time>
      </trkpt>
      <trkpt lat="43.72912" lon="7.33754">
        <ele>536.07</ele>
        <time>2014-07-06T18:14:53Z</time>
      </trkpt>
      <trkpt lat="43.72913" lon="7.33753">
        <ele>535.59</ele>
        <time>2014-07-06T18:15:01Z</time>
      </trkpt>
      <trkpt lat="43.72915" lon="7.33752">
        <ele>535.11</ele>
        <time>2014-07-06T18:15:02Z</time>
      </trkpt>
      <trkpt lat="43.72923" lon="7.33751">
        <ele>531.75</ele>
        <time>2014-07-06T18:15:08Z</time>
      </trkpt>
      <trkpt lat="43.72924" lon="7.33751">
        <ele>531.27</ele>
        <time>2014-07-06T18:15:09Z</time>
      </trkpt>
      <trkpt lat="43.72925" lon="7.33751">
        <ele>530.79</ele>
        <time>2014-07-06T18:15:10Z</time>
      </trkpt>
      <trkpt lat="43.72928" lon="7.33749">
        <ele>528.38</ele>
        <time>2014-07-06T18:15:12Z</time>
      </trkpt>
      <trkpt lat="43.7293" lon="7.33749">
        <ele>527.42</ele>
        <time>2014-07-06T18:15:13Z</time>
      </trkpt>
      <trkpt lat="43.72931" lon="7.33747">
        <ele>526.46</ele>
        <time>2014-07-06T18:15:14Z</time>
      </trkpt>
      <trkpt lat="43.72934" lon="7.33746">
        <ele>525.5</ele>
        <time>2014-07-06T18:15:15Z</time>
      </trkpt>
      <trkpt lat="43.72937" lon="7.33746">
        <ele>524.54</ele>
        <time>2014-07-06T18:15:16Z</time>
      </trkpt>
      <trkpt lat="43.72939" lon="7.33745">
        <ele>524.06</ele>
        <time>2014-07-06T18:15:17Z</time>
      </trkpt>
      <trkpt lat="43.72942" lon="7.33742">
        <ele>522.61</ele>
        <time>2014-07-06T18:15:27Z</time>
      </trkpt>
      <trkpt lat="43.72944" lon="7.33738">
        <ele>521.65</ele>
        <time>2014-07-06T18:15:46Z</time>
      </trkpt>
      <trkpt lat="43.72945" lon="7.33736">
        <ele>521.17</ele>
        <time>2014-07-06T18:15:47Z</time>
      </trkpt>
      <trkpt lat="43.72947" lon="7.33734">
        <ele>520.69</ele>
        <time>2014-07-06T18:15:48Z</time>
      </trkpt>
      <trkpt lat="43.72948" lon="7.33731">
        <ele>520.21</ele>
        <time>2014-07-06T18:15:49Z</time>
      </trkpt>
      <trkpt lat="43.72949" lon="7.33728">
        <ele>519.25</ele>
        <time>2014-07-06T18:15:50Z</time>
      </trkpt>
      <trkpt lat="43.72949" lon="7.33723">
        <ele>518.77</ele>
        <time>2014-07-06T18:15:51Z</time>
      </trkpt>
      <trkpt lat="43.7295" lon="7.33718">
        <ele>517.81</ele>
        <time>2014-07-06T18:15:52Z</time>
      </trkpt>
      <trkpt lat="43.72952" lon="7.33714">
        <ele>517.33</ele>
        <time>2014-07-06T18:15:53Z</time>
      </trkpt>
      <trkpt lat="43.72956" lon="7.33708">
        <ele>515.88</ele>
        <time>2014-07-06T18:15:55Z</time>
      </trkpt>
      <trkpt lat="43.72957" lon="7.33708">
        <ele>515.4</ele>
        <time>2014-07-06T18:15:59Z</time>
      </trkpt>
      <trkpt lat="43.72955" lon="7.33711">
        <ele>515.4</ele>
        <time>2014-07-06T18:16:02Z</time>
      </trkpt>
      <trkpt lat="43.7295" lon="7.33723">
        <ele>518.77</ele>
        <time>2014-07-06T18:16:14Z</time>
      </trkpt>
      <trkpt lat="43.7295" lon="7.33724">
        <ele>518.29</ele>
        <time>2014-07-06T18:16:25Z</time>
      </trkpt>
      <trkpt lat="43.7295" lon="7.33723">
        <ele>518.77</ele>
        <time>2014-07-06T18:17:02Z</time>
      </trkpt>
      <trkpt lat="43.72951" lon="7.33723">
        <ele>518.29</ele>
        <time>2014-07-06T18:17:39Z</time>
      </trkpt>
      <trkpt lat="43.72952" lon="7.3372">
        <ele>517.81</ele>
        <time>2014-07-06T18:17:41Z</time>
      </trkpt>
      <trkpt lat="43.72955" lon="7.33713">
        <ele>515.4</ele>
        <time>2014-07-06T18:17:52Z</time>
      </trkpt>
      <trkpt lat="43.72955" lon="7.33713">
        <ele>515.4</ele>
        <time>2014-07-06T18:18:06Z</time>
      </trkpt>
      <trkpt lat="43.7296" lon="7.33699">
        <ele>513.96</ele>
        <time>2014-07-06T18:18:12Z</time>
      </trkpt>
      <trkpt lat="43.72966" lon="7.33691">
        <ele>512.52</ele>
        <time>2014-07-06T18:18:15Z</time>
      </trkpt>
      <trkpt lat="43.72979" lon="7.33707">
        <ele>508.67</ele>
        <time>2014-07-06T18:18:24Z</time>
      </trkpt>
      <trkpt lat="43.72986" lon="7.33722">
        <ele>507.71</ele>
        <time>2014-07-06T18:18:36Z</time>
      </trkpt>
      <trkpt lat="43.73003" lon="7.33775">
        <ele>503.87</ele>
        <time>2014-07-06T18:18:45Z</time>
      </trkpt>
      <trkpt lat="43.73012" lon="7.33792">
        <ele>503.39</ele>
        <time>2014-07-06T18:18:49Z</time>
      </trkpt>
      <trkpt lat="43.73016" lon="7.338">
        <ele>502.91</ele>
        <time>2014-07-06T18:18:51Z</time>
      </trkpt>
      <trkpt lat="43.73017" lon="7.33812">
        <ele>502.91</ele>
        <time>2014-07-06T18:18:55Z</time>
      </trkpt>
      <trkpt lat="43.73028" lon="7.33828">
        <ele>503.39</ele>
        <time>2014-07-06T18:19:00Z</time>
      </trkpt>
      <trkpt lat="43.73037" lon="7.33841">
        <ele>503.39</ele>
        <time>2014-07-06T18:19:03Z</time>
      </trkpt>
      <trkpt lat="43.73048" lon="7.33874">
        <ele>500.5</ele>
        <time>2014-07-06T18:19:10Z</time>
      </trkpt>
      <trkpt lat="43.73062" lon="7.33907">
        <ele>498.1</ele>
        <time>2014-07-06T18:19:18Z</time>
      </trkpt>
      <trkpt lat="43.73074" lon="7.33939">
        <ele>498.1</ele>
        <time>2014-07-06T18:19:24Z</time>
      </trkpt>
      <trkpt lat="43.73091" lon="7.33981">
        <ele>497.14</ele>
        <time>2014-07-06T18:19:31Z</time>
      </trkpt>
      <trkpt lat="43.73093" lon="7.33986">
        <ele>497.14</ele>
        <time>2014-07-06T18:19:32Z</time>
      </trkpt>
      <trkpt lat="43.73097" lon="7.33991">
        <ele>496.66</ele>
        <time>2014-07-06T18:19:33Z</time>
      </trkpt>
      <trkpt lat="43.73107" lon="7.34004">
        <ele>496.66</ele>
        <time>2014-07-06T18:19:37Z</time>
      </trkpt>
      <trkpt lat="43.73133" lon="7.34045">
        <ele>496.66</ele>
        <time>2014-07-06T18:19:47Z</time>
      </trkpt>
      <trkpt lat="43.73136" lon="7.3405">
        <ele>496.18</ele>
        <time>2014-07-06T18:19:49Z</time>
      </trkpt>
      <trkpt lat="43.73135" lon="7.34052">
        <ele>495.7</ele>
        <time>2014-07-06T18:19:50Z</time>
      </trkpt>
      <trkpt lat="43.73131" lon="7.3404">
        <ele>494.74</ele>
        <time>2014-07-06T18:19:56Z</time>
      </trkpt>
      <trkpt lat="43.73137" lon="7.34022">
        <ele>491.85</ele>
        <time>2014-07-06T18:20:01Z</time>
      </trkpt>
      <trkpt lat="43.73138" lon="7.34017">
        <ele>490.89</ele>
        <time>2014-07-06T18:20:02Z</time>
      </trkpt>
      <trkpt lat="43.73139" lon="7.3401">
        <ele>490.41</ele>
        <time>2014-07-06T18:20:03Z</time>
      </trkpt>
      <trkpt lat="43.73138" lon="7.34003">
        <ele>489.45</ele>
        <time>2014-07-06T18:20:04Z</time>
      </trkpt>
      <trkpt lat="43.73138" lon="7.33997">
        <ele>488.49</ele>
        <time>2014-07-06T18:20:05Z</time>
      </trkpt>
      <trkpt lat="43.73139" lon="7.33993">
        <ele>487.53</ele>
        <time>2014-07-06T18:20:06Z</time>
      </trkpt>
      <trkpt lat="43.73139" lon="7.3399">
        <ele>487.05</ele>
        <time>2014-07-06T18:20:07Z</time>
      </trkpt>
      <trkpt lat="43.7314" lon="7.33984">
        <ele>486.08</ele>
        <time>2014-07-06T18:20:08Z</time>
      </trkpt>
      <trkpt lat="43.7314" lon="7.33979">
        <ele>485.6</ele>
        <time>2014-07-06T18:20:09Z</time>
      </trkpt>
      <trkpt lat="43.73139" lon="7.33976">
        <ele>485.12</ele>
        <time>2014-07-06T18:20:10Z</time>
      </trkpt>
      <trkpt lat="43.7314" lon="7.33974">
        <ele>485.6</ele>
        <time>2014-07-06T18:20:21Z</time>
      </trkpt>
      <trkpt lat="43.73139" lon="7.33972">
        <ele>487.53</ele>
        <time>2014-07-06T18:20:53Z</time>
      </trkpt>
      <trkpt lat="43.73135" lon="7.33958">
        <ele>486.56</ele>
        <time>2014-07-06T18:21:16Z</time>
      </trkpt>
      <trkpt lat="43.73132" lon="7.33948">
        <ele>485.6</ele>
        <time>2014-07-06T18:21:18Z</time>
      </trkpt>
      <trkpt lat="43.73131" lon="7.33943">
        <ele>485.12</ele>
        <time>2014-07-06T18:21:19Z</time>
      </trkpt>
      <trkpt lat="43.7313" lon="7.33936">
        <ele>484.64</ele>
        <time>2014-07-06T18:21:20Z</time>
      </trkpt>
      <trkpt lat="43.73129" lon="7.33929">
        <ele>484.16</ele>
        <time>2014-07-06T18:21:21Z</time>
      </trkpt>
      <trkpt lat="43.73129" lon="7.33921">
        <ele>483.68</ele>
        <time>2014-07-06T18:21:22Z</time>
      </trkpt>
      <trkpt lat="43.73129" lon="7.33913">
        <ele>483.68</ele>
        <time>2014-07-06T18:21:23Z</time>
      </trkpt>
      <trkpt lat="43.7313" lon="7.33905">
        <ele>483.2</ele>
        <time>2014-07-06T18:21:24Z</time>
      </trkpt>
      <trkpt lat="43.7313" lon="7.33895">
        <ele>483.2</ele>
        <time>2014-07-06T18:21:26Z</time>
      </trkpt>
      <trkpt lat="43.73131" lon="7.33892">
        <ele>482.72</ele>
        <time>2014-07-06T18:21:27Z</time>
      </trkpt>
      <trkpt lat="43.73133" lon="7.33889">
        <ele>482.72</ele>
        <time>2014-07-06T18:21:28Z</time>
      </trkpt>
      <trkpt lat="43.73136" lon="7.33886">
        <ele>482.24</ele>
        <time>2014-07-06T18:21:29Z</time>
      </trkpt>
      <trkpt lat="43.7314" lon="7.33885">
        <ele>482.24</ele>
        <time>2014-07-06T18:21:30Z</time>
      </trkpt>
      <trkpt lat="43.73145" lon="7.33884">
        <ele>481.76</ele>
        <time>2014-07-06T18:21:31Z</time>
      </trkpt>
      <trkpt lat="43.73157" lon="7.33879">
        <ele>479.84</ele>
        <time>2014-07-06T18:21:33Z</time>
      </trkpt>
      <trkpt lat="43.73163" lon="7.33873">
        <ele>478.87</ele>
        <time>2014-07-06T18:21:34Z</time>
      </trkpt>
      <trkpt lat="43.73168" lon="7.33865">
        <ele>477.43</ele>
        <time>2014-07-06T18:21:35Z</time>
      </trkpt>
      <trkpt lat="43.73171" lon="7.33856">
        <ele>475.99</ele>
        <time>2014-07-06T18:21:36Z</time>
      </trkpt>
      <trkpt lat="43.73173" lon="7.33846">
        <ele>474.55</ele>
        <time>2014-07-06T18:21:37Z</time>
      </trkpt>
      <trkpt lat="43.73173" lon="7.33836">
        <ele>473.11</ele>
        <time>2014-07-06T18:21:38Z</time>
      </trkpt>
      <trkpt lat="43.73171" lon="7.33829">
        <ele>472.14</ele>
        <time>2014-07-06T18:21:39Z</time>
      </trkpt>
      <trkpt lat="43.73169" lon="7.3382">
        <ele>470.7</ele>
        <time>2014-07-06T18:21:40Z</time>
      </trkpt>
      <trkpt lat="43.73162" lon="7.33791">
        <ele>466.38</ele>
        <time>2014-07-06T18:21:43Z</time>
      </trkpt>
      <trkpt lat="43.7316" lon="7.33781">
        <ele>464.45</ele>
        <time>2014-07-06T18:21:44Z</time>
      </trkpt>
      <trkpt lat="43.73158" lon="7.33772">
        <ele>463.01</ele>
        <time>2014-07-06T18:21:45Z</time>
      </trkpt>
      <trkpt lat="43.73157" lon="7.33764">
        <ele>461.57</ele>
        <time>2014-07-06T18:21:46Z</time>
      </trkpt>
      <trkpt lat="43.73157" lon="7.33755">
        <ele>460.61</ele>
        <time>2014-07-06T18:21:47Z</time>
      </trkpt>
      <trkpt lat="43.73158" lon="7.33746">
        <ele>459.65</ele>
        <time>2014-07-06T18:21:48Z</time>
      </trkpt>
      <trkpt lat="43.73163" lon="7.33739">
        <ele>458.21</ele>
        <time>2014-07-06T18:21:49Z</time>
      </trkpt>
      <trkpt lat="43.73169" lon="7.33734">
        <ele>457.24</ele>
        <time>2014-07-06T18:21:50Z</time>
      </trkpt>
      <trkpt lat="43.73176" lon="7.33733">
        <ele>456.28</ele>
        <time>2014-07-06T18:21:51Z</time>
      </trkpt>
      <trkpt lat="43.73184" lon="7.33732">
        <ele>454.84</ele>
        <time>2014-07-06T18:21:52Z</time>
      </trkpt>
      <trkpt lat="43.73229" lon="7.33721">
        <ele>445.71</ele>
        <time>2014-07-06T18:22:00Z</time>
      </trkpt>
      <trkpt lat="43.73244" lon="7.33723">
        <ele>443.79</ele>
        <time>2014-07-06T18:22:07Z</time>
      </trkpt>
      <trkpt lat="43.73246" lon="7.33721">
        <ele>443.79</ele>
        <time>2014-07-06T18:22:08Z</time>
      </trkpt>
      <trkpt lat="43.73248" lon="7.33718">
        <ele>443.79</ele>
        <time>2014-07-06T18:22:09Z</time>
      </trkpt>
      <trkpt lat="43.7325" lon="7.33713">
        <ele>443.79</ele>
        <time>2014-07-06T18:22:10Z</time>
      </trkpt>
      <trkpt lat="43.73252" lon="7.33709">
        <ele>444.27</ele>
        <time>2014-07-06T18:22:11Z</time>
      </trkpt>
      <trkpt lat="43.73262" lon="7.33692">
        <ele>443.79</ele>
        <time>2014-07-06T18:22:15Z</time>
      </trkpt>
      <trkpt lat="43.73265" lon="7.33687">
        <ele>442.82</ele>
        <time>2014-07-06T18:22:16Z</time>
      </trkpt>
      <trkpt lat="43.73269" lon="7.33683">
        <ele>442.34</ele>
        <time>2014-07-06T18:22:17Z</time>
      </trkpt>
      <trkpt lat="43.73271" lon="7.3368">
        <ele>441.86</ele>
        <time>2014-07-06T18:22:18Z</time>
      </trkpt>
      <trkpt lat="43.73273" lon="7.33677">
        <ele>441.86</ele>
        <time>2014-07-06T18:22:19Z</time>
      </trkpt>
      <trkpt lat="43.73277" lon="7.33675">
        <ele>441.86</ele>
        <time>2014-07-06T18:22:20Z</time>
      </trkpt>
      <trkpt lat="43.73281" lon="7.33675">
        <ele>441.86</ele>
        <time>2014-07-06T18:22:21Z</time>
      </trkpt>
      <trkpt lat="43.73286" lon="7.33674">
        <ele>441.86</ele>
        <time>2014-07-06T18:22:22Z</time>
      </trkpt>
      <trkpt lat="43.73302" lon="7.33667">
        <ele>441.38</ele>
        <time>2014-07-06T18:22:29Z</time>
      </trkpt>
      <trkpt lat="43.73305" lon="7.33666">
        <ele>441.38</ele>
        <time>2014-07-06T18:22:32Z</time>
      </trkpt>
      <trkpt lat="43.73309" lon="7.3366">
        <ele>440.9</ele>
        <time>2014-07-06T18:22:35Z</time>
      </trkpt>
      <trkpt lat="43.73326" lon="7.33645">
        <ele>439.46</ele>
        <time>2014-07-06T18:22:45Z</time>
      </trkpt>
      <trkpt lat="43.73329" lon="7.33641">
        <ele>440.42</ele>
        <time>2014-07-06T18:22:48Z</time>
      </trkpt>
      <trkpt lat="43.7333" lon="7.33639">
        <ele>441.38</ele>
        <time>2014-07-06T18:23:06Z</time>
      </trkpt>
      <trkpt lat="43.7333" lon="7.33638">
        <ele>442.34</ele>
        <time>2014-07-06T18:23:20Z</time>
      </trkpt>
      <trkpt lat="43.73338" lon="7.3363">
        <ele>445.71</ele>
        <time>2014-07-06T18:23:29Z</time>
      </trkpt>
      <trkpt lat="43.73339" lon="7.33628">
        <ele>444.27</ele>
        <time>2014-07-06T18:23:42Z</time>
      </trkpt>
      <trkpt lat="43.7334" lon="7.33625">
        <ele>444.75</ele>
        <time>2014-07-06T18:24:00Z</time>
      </trkpt>
      <trkpt lat="43.73348" lon="7.3362">
        <ele>444.27</ele>
        <time>2014-07-06T18:24:05Z</time>
      </trkpt>
      <trkpt lat="43.73367" lon="7.33607">
        <ele>445.71</ele>
        <time>2014-07-06T18:24:14Z</time>
      </trkpt>
      <trkpt lat="43.73378" lon="7.33597">
        <ele>449.55</ele>
        <time>2014-07-06T18:24:27Z</time>
      </trkpt>
      <trkpt lat="43.73383" lon="7.33594">
        <ele>451.48</ele>
        <time>2014-07-06T18:24:37Z</time>
      </trkpt>
      <trkpt lat="43.73393" lon="7.33583">
        <ele>450.52</ele>
        <time>2014-07-06T18:24:42Z</time>
      </trkpt>
      <trkpt lat="43.73409" lon="7.33575">
        <ele>449.07</ele>
        <time>2014-07-06T18:24:51Z</time>
      </trkpt>
      <trkpt lat="43.7342" lon="7.33565">
        <ele>447.63</ele>
        <time>2014-07-06T18:24:59Z</time>
      </trkpt>
      <trkpt lat="43.7342" lon="7.33564">
        <ele>447.15</ele>
        <time>2014-07-06T18:25:00Z</time>
      </trkpt>
      <trkpt lat="43.73428" lon="7.3354">
        <ele>446.67</ele>
        <time>2014-07-06T18:25:08Z</time>
      </trkpt>
      <trkpt lat="43.73431" lon="7.33535">
        <ele>447.15</ele>
        <time>2014-07-06T18:25:14Z</time>
      </trkpt>
      <trkpt lat="43.73434" lon="7.3353">
        <ele>447.63</ele>
        <time>2014-07-06T18:25:17Z</time>
      </trkpt>
      <trkpt lat="43.73445" lon="7.33513">
        <ele>445.23</ele>
        <time>2014-07-06T18:25:23Z</time>
      </trkpt>
      <trkpt lat="43.73444" lon="7.33513">
        <ele>444.75</ele>
        <time>2014-07-06T18:25:25Z</time>
      </trkpt>
      <trkpt lat="43.73441" lon="7.33517">
        <ele>444.75</ele>
        <time>2014-07-06T18:25:29Z</time>
      </trkpt>
      <trkpt lat="43.73438" lon="7.33519">
        <ele>445.23</ele>
        <time>2014-07-06T18:25:31Z</time>
      </trkpt>
      <trkpt lat="43.73436" lon="7.33522">
        <ele>446.19</ele>
        <time>2014-07-06T18:25:35Z</time>
      </trkpt>
      <trkpt lat="43.7343" lon="7.33528">
        <ele>449.55</ele>
        <time>2014-07-06T18:25:47Z</time>
      </trkpt>
      <trkpt lat="43.7343" lon="7.33527">
        <ele>449.55</ele>
        <time>2014-07-06T18:25:57Z</time>
      </trkpt>
      <trkpt lat="43.73429" lon="7.33516">
        <ele>449.07</ele>
        <time>2014-07-06T18:26:00Z</time>
      </trkpt>
      <trkpt lat="43.7343" lon="7.33501">
        <ele>445.71</ele>
        <time>2014-07-06T18:26:04Z</time>
      </trkpt>
      <trkpt lat="43.73431" lon="7.33488">
        <ele>441.86</ele>
        <time>2014-07-06T18:26:07Z</time>
      </trkpt>
      <trkpt lat="43.73458" lon="7.33466">
        <ele>430.33</ele>
        <time>2014-07-06T18:26:17Z</time>
      </trkpt>
      <trkpt lat="43.73465" lon="7.33466">
        <ele>428.89</ele>
        <time>2014-07-06T18:26:21Z</time>
      </trkpt>
      <trkpt lat="43.73474" lon="7.33469">
        <ele>430.33</ele>
        <time>2014-07-06T18:26:27Z</time>
      </trkpt>
      <trkpt lat="43.7348" lon="7.33471">
        <ele>430.33</ele>
        <time>2014-07-06T18:26:30Z</time>
      </trkpt>
      <trkpt lat="43.73512" lon="7.33467">
        <ele>425.52</ele>
        <time>2014-07-06T18:26:37Z</time>
      </trkpt>
      <trkpt lat="43.73536" lon="7.33472">
        <ele>417.35</ele>
        <time>2014-07-06T18:26:44Z</time>
      </trkpt>
      <trkpt lat="43.73545" lon="7.33477">
        <ele>411.58</ele>
        <time>2014-07-06T18:26:48Z</time>
      </trkpt>
      <trkpt lat="43.73554" lon="7.33452">
        <ele>403.89</ele>
        <time>2014-07-06T18:26:54Z</time>
      </trkpt>
      <trkpt lat="43.73571" lon="7.33441">
        <ele>390.91</ele>
        <time>2014-07-06T18:27:02Z</time>
      </trkpt>
      <trkpt lat="43.73572" lon="7.33438">
        <ele>388.99</ele>
        <time>2014-07-06T18:27:03Z</time>
      </trkpt>
      <trkpt lat="43.73581" lon="7.33419">
        <ele>383.7</ele>
        <time>2014-07-06T18:27:10Z</time>
      </trkpt>
      <trkpt lat="43.73585" lon="7.33419">
        <ele>388.99</ele>
        <time>2014-07-06T18:27:24Z</time>
      </trkpt>
      <trkpt lat="43.73586" lon="7.33418">
        <ele>389.47</ele>
        <time>2014-07-06T18:27:33Z</time>
      </trkpt>
      <trkpt lat="43.73586" lon="7.33417">
        <ele>389.47</ele>
        <time>2014-07-06T18:27:38Z</time>
      </trkpt>
      <trkpt lat="43.7359" lon="7.334">
        <ele>387.55</ele>
        <time>2014-07-06T18:27:43Z</time>
      </trkpt>
      <trkpt lat="43.73586" lon="7.33364">
        <ele>379.86</ele>
        <time>2014-07-06T18:27:53Z</time>
      </trkpt>
      <trkpt lat="43.73594" lon="7.33343">
        <ele>367.84</ele>
        <time>2014-07-06T18:28:03Z</time>
      </trkpt>
      <trkpt lat="43.73606" lon="7.33332">
        <ele>361.59</ele>
        <time>2014-07-06T18:28:10Z</time>
      </trkpt>
      <trkpt lat="43.7361" lon="7.33315">
        <ele>356.31</ele>
        <time>2014-07-06T18:28:16Z</time>
      </trkpt>
      <trkpt lat="43.73614" lon="7.33296">
        <ele>352.94</ele>
        <time>2014-07-06T18:28:21Z</time>
      </trkpt>
      <trkpt lat="43.73622" lon="7.33289">
        <ele>347.17</ele>
        <time>2014-07-06T18:28:27Z</time>
      </trkpt>
      <trkpt lat="43.73627" lon="7.33291">
        <ele>343.81</ele>
        <time>2014-07-06T18:28:31Z</time>
      </trkpt>
      <trkpt lat="43.73629" lon="7.33297">
        <ele>340.44</ele>
        <time>2014-07-06T18:28:35Z</time>
      </trkpt>
      <trkpt lat="43.73633" lon="7.33307">
        <ele>333.23</ele>
        <time>2014-07-06T18:28:46Z</time>
      </trkpt>
      <trkpt lat="43.73636" lon="7.33305">
        <ele>332.27</ele>
        <time>2014-07-06T18:29:07Z</time>
      </trkpt>
      <trkpt lat="43.73638" lon="7.33311">
        <ele>332.27</ele>
        <time>2014-07-06T18:29:20Z</time>
      </trkpt>
      <trkpt lat="43.73645" lon="7.3332">
        <ele>332.27</ele>
        <time>2014-07-06T18:29:28Z</time>
      </trkpt>
      <trkpt lat="43.73649" lon="7.33317">
        <ele>326.5</ele>
        <time>2014-07-06T18:29:34Z</time>
      </trkpt>
      <trkpt lat="43.73657" lon="7.33332">
        <ele>321.7</ele>
        <time>2014-07-06T18:29:39Z</time>
      </trkpt>
      <trkpt lat="43.73665" lon="7.33348">
        <ele>319.3</ele>
        <time>2014-07-06T18:29:43Z</time>
      </trkpt>
      <trkpt lat="43.73662" lon="7.33371">
        <ele>313.53</ele>
        <time>2014-07-06T18:29:49Z</time>
      </trkpt>
      <trkpt lat="43.73664" lon="7.33401">
        <ele>307.28</ele>
        <time>2014-07-06T18:29:56Z</time>
      </trkpt>
      <trkpt lat="43.73678" lon="7.33402">
        <ele>301.03</ele>
        <time>2014-07-06T18:30:02Z</time>
      </trkpt>
      <trkpt lat="43.73689" lon="7.33394">
        <ele>295.74</ele>
        <time>2014-07-06T18:30:08Z</time>
      </trkpt>
      <trkpt lat="43.7369" lon="7.33403">
        <ele>291.9</ele>
        <time>2014-07-06T18:30:12Z</time>
      </trkpt>
      <trkpt lat="43.73694" lon="7.33429">
        <ele>281.32</ele>
        <time>2014-07-06T18:30:19Z</time>
      </trkpt>
      <trkpt lat="43.73692" lon="7.33435">
        <ele>279.88</ele>
        <time>2014-07-06T18:30:21Z</time>
      </trkpt>
      <trkpt lat="43.73689" lon="7.33444">
        <ele>269.31</ele>
        <time>2014-07-06T18:30:30Z</time>
      </trkpt>
      <trkpt lat="43.73687" lon="7.33445">
        <ele>267.86</ele>
        <time>2014-07-06T18:30:35Z</time>
      </trkpt>
      <trkpt lat="43.73687" lon="7.33448">
        <ele>266.9</ele>
        <time>2014-07-06T18:30:37Z</time>
      </trkpt>
      <trkpt lat="43.73691" lon="7.33472">
        <ele>266.42</ele>
        <time>2014-07-06T18:30:46Z</time>
      </trkpt>
      <trkpt lat="43.73695" lon="7.33473">
        <ele>267.86</ele>
        <time>2014-07-06T18:30:50Z</time>
      </trkpt>
      <trkpt lat="43.73696" lon="7.33478">
        <ele>270.27</ele>
        <time>2014-07-06T18:30:53Z</time>
      </trkpt>
      <trkpt lat="43.73703" lon="7.33516">
        <ele>271.23</ele>
        <time>2014-07-06T18:31:01Z</time>
      </trkpt>
      <trkpt lat="43.73712" lon="7.33537">
        <ele>272.67</ele>
        <time>2014-07-06T18:31:09Z</time>
      </trkpt>
      <trkpt lat="43.73715" lon="7.33537">
        <ele>280.84</ele>
        <time>2014-07-06T18:31:20Z</time>
      </trkpt>
      <trkpt lat="43.73715" lon="7.33532">
        <ele>288.05</ele>
        <time>2014-07-06T18:31:29Z</time>
      </trkpt>
      <trkpt lat="43.73715" lon="7.33523">
        <ele>298.63</ele>
        <time>2014-07-06T18:31:38Z</time>
      </trkpt>
      <trkpt lat="43.73715" lon="7.33515">
        <ele>300.55</ele>
        <time>2014-07-06T18:31:44Z</time>
      </trkpt>
      <trkpt lat="43.73715" lon="7.33508">
        <ele>301.99</ele>
        <time>2014-07-06T18:31:50Z</time>
      </trkpt>
      <trkpt lat="43.73711" lon="7.33497">
        <ele>305.36</ele>
        <time>2014-07-06T18:31:55Z</time>
      </trkpt>
      <trkpt lat="43.73706" lon="7.33483">
        <ele>311.12</ele>
        <time>2014-07-06T18:32:02Z</time>
      </trkpt>
      <trkpt lat="43.73706" lon="7.33476">
        <ele>313.05</ele>
        <time>2014-07-06T18:32:06Z</time>
      </trkpt>
      <trkpt lat="43.73708" lon="7.33469">
        <ele>314.49</ele>
        <time>2014-07-06T18:32:10Z</time>
      </trkpt>
      <trkpt lat="43.73706" lon="7.33466">
        <ele>315.45</ele>
        <time>2014-07-06T18:32:12Z</time>
      </trkpt>
      <trkpt lat="43.73702" lon="7.33459">
        <ele>315.45</ele>
        <time>2014-07-06T18:32:17Z</time>
      </trkpt>
      <trkpt lat="43.73704" lon="7.33455">
        <ele>315.93</ele>
        <time>2014-07-06T18:32:20Z</time>
      </trkpt>
      <trkpt lat="43.73705" lon="7.33452">
        <ele>315.93</ele>
        <time>2014-07-06T18:32:22Z</time>
      </trkpt>
      <trkpt lat="43.73704" lon="7.33432">
        <ele>315.45</ele>
        <time>2014-07-06T18:32:35Z</time>
      </trkpt>
      <trkpt lat="43.73702" lon="7.3342">
        <ele>319.78</ele>
        <time>2014-07-06T18:32:46Z</time>
      </trkpt>
      <trkpt lat="43.737" lon="7.3341">
        <ele>321.22</ele>
        <time>2014-07-06T18:32:59Z</time>
      </trkpt>
      <trkpt lat="43.73697" lon="7.33396">
        <ele>322.18</ele>
        <time>2014-07-06T18:33:13Z</time>
      </trkpt>
      <trkpt lat="43.73694" lon="7.33393">
        <ele>323.62</ele>
        <time>2014-07-06T18:33:27Z</time>
      </trkpt>
      <trkpt lat="43.73695" lon="7.33394">
        <ele>323.14</ele>
        <time>2014-07-06T18:33:42Z</time>
      </trkpt>
      <trkpt lat="43.73695" lon="7.33394">
        <ele>323.14</ele>
        <time>2014-07-06T18:33:47Z</time>
      </trkpt>
      <trkpt lat="43.73696" lon="7.33401">
        <ele>321.22</ele>
        <time>2014-07-06T18:33:51Z</time>
      </trkpt>
      <trkpt lat="43.73701" lon="7.33428">
        <ele>314.01</ele>
        <time>2014-07-06T18:33:57Z</time>
      </trkpt>
      <trkpt lat="43.73697" lon="7.33463">
        <ele>301.99</ele>
        <time>2014-07-06T18:34:06Z</time>
      </trkpt>
      <trkpt lat="43.73708" lon="7.33516">
        <ele>290.46</ele>
        <time>2014-07-06T18:34:15Z</time>
      </trkpt>
      <trkpt lat="43.73709" lon="7.3353">
        <ele>287.09</ele>
        <time>2014-07-06T18:34:18Z</time>
      </trkpt>
      <trkpt lat="43.73714" lon="7.33541">
        <ele>283.25</ele>
        <time>2014-07-06T18:34:28Z</time>
      </trkpt>
      <trkpt lat="43.73725" lon="7.33549">
        <ele>284.69</ele>
        <time>2014-07-06T18:34:39Z</time>
      </trkpt>
      <trkpt lat="43.73733" lon="7.3355">
        <ele>289.97</ele>
        <time>2014-07-06T18:34:51Z</time>
      </trkpt>
      <trkpt lat="43.7374" lon="7.3354">
        <ele>296.22</ele>
        <time>2014-07-06T18:35:02Z</time>
      </trkpt>
      <trkpt lat="43.73741" lon="7.33534">
        <ele>299.11</ele>
        <time>2014-07-06T18:35:06Z</time>
      </trkpt>
      <trkpt lat="43.73748" lon="7.33524">
        <ele>308.72</ele>
        <time>2014-07-06T18:35:19Z</time>
      </trkpt>
      <trkpt lat="43.73751" lon="7.33523">
        <ele>311.6</ele>
        <time>2014-07-06T18:35:33Z</time>
      </trkpt>
      <trkpt lat="43.73752" lon="7.33521">
        <ele>312.09</ele>
        <time>2014-07-06T18:36:02Z</time>
      </trkpt>
      <trkpt lat="43.73757" lon="7.33515">
        <ele>314.01</ele>
        <time>2014-07-06T18:36:13Z</time>
      </trkpt>
      <trkpt lat="43.73759" lon="7.33514">
        <ele>315.45</ele>
        <time>2014-07-06T18:36:20Z</time>
      </trkpt>
      <trkpt lat="43.73765" lon="7.33515">
        <ele>319.78</ele>
        <time>2014-07-06T18:36:31Z</time>
      </trkpt>
      <trkpt lat="43.73774" lon="7.33511">
        <ele>323.62</ele>
        <time>2014-07-06T18:36:42Z</time>
      </trkpt>
      <trkpt lat="43.73783" lon="7.33506">
        <ele>324.58</ele>
        <time>2014-07-06T18:36:54Z</time>
      </trkpt>
      <trkpt lat="43.73787" lon="7.33503">
        <ele>325.54</ele>
        <time>2014-07-06T18:37:05Z</time>
      </trkpt>
      <trkpt lat="43.73788" lon="7.335">
        <ele>326.5</ele>
        <time>2014-07-06T18:37:08Z</time>
      </trkpt>
      <trkpt lat="43.73799" lon="7.33497">
        <ele>326.5</ele>
        <time>2014-07-06T18:37:16Z</time>
      </trkpt>
      <trkpt lat="43.73802" lon="7.33496">
        <ele>325.54</ele>
        <time>2014-07-06T18:37:18Z</time>
      </trkpt>
      <trkpt lat="43.73807" lon="7.33497">
        <ele>323.14</ele>
        <time>2014-07-06T18:37:22Z</time>
      </trkpt>
      <trkpt lat="43.73813" lon="7.33496">
        <ele>321.7</ele>
        <time>2014-07-06T18:37:29Z</time>
      </trkpt>
      <trkpt lat="43.73817" lon="7.33489">
        <ele>324.1</ele>
        <time>2014-07-06T18:37:35Z</time>
      </trkpt>
      <trkpt lat="43.73823" lon="7.33474">
        <ele>324.58</ele>
        <time>2014-07-06T18:37:45Z</time>
      </trkpt>
      <trkpt lat="43.73826" lon="7.33464">
        <ele>325.54</ele>
        <time>2014-07-06T18:37:51Z</time>
      </trkpt>
      <trkpt lat="43.73834" lon="7.33454">
        <ele>322.66</ele>
        <time>2014-07-06T18:37:58Z</time>
      </trkpt>
      <trkpt lat="43.73856" lon="7.33425">
        <ele>320.26</ele>
        <time>2014-07-06T18:38:08Z</time>
      </trkpt>
      <trkpt lat="43.73872" lon="7.33402">
        <ele>318.81</ele>
        <time>2014-07-06T18:38:15Z</time>
      </trkpt>
      <trkpt lat="43.73879" lon="7.33385">
        <ele>316.89</ele>
        <time>2014-07-06T18:38:19Z</time>
      </trkpt>
      <trkpt lat="43.73882" lon="7.33356">
        <ele>315.45</ele>
        <time>2014-07-06T18:38:23Z</time>
      </trkpt>
      <trkpt lat="43.73886" lon="7.33335">
        <ele>314.01</ele>
        <time>2014-07-06T18:38:25Z</time>
      </trkpt>
      <trkpt lat="43.7389" lon="7.33306">
        <ele>312.57</ele>
        <time>2014-07-06T18:38:28Z</time>
      </trkpt>
      <trkpt lat="43.73892" lon="7.33279">
        <ele>310.64</ele>
        <time>2014-07-06T18:38:32Z</time>
      </trkpt>
      <trkpt lat="43.7389" lon="7.33267">
        <ele>309.68</ele>
        <time>2014-07-06T18:38:34Z</time>
      </trkpt>
      <trkpt lat="43.73887" lon="7.33246">
        <ele>308.24</ele>
        <time>2014-07-06T18:38:38Z</time>
      </trkpt>
      <trkpt lat="43.73887" lon="7.33229">
        <ele>306.8</ele>
        <time>2014-07-06T18:38:41Z</time>
      </trkpt>
      <trkpt lat="43.73889" lon="7.33203">
        <ele>303.91</ele>
        <time>2014-07-06T18:38:45Z</time>
      </trkpt>
      <trkpt lat="43.73894" lon="7.33189">
        <ele>301.99</ele>
        <time>2014-07-06T18:38:47Z</time>
      </trkpt>
      <trkpt lat="43.73904" lon="7.33164">
        <ele>300.07</ele>
        <time>2014-07-06T18:38:51Z</time>
      </trkpt>
      <trkpt lat="43.73919" lon="7.33133">
        <ele>296.7</ele>
        <time>2014-07-06T18:38:57Z</time>
      </trkpt>
      <trkpt lat="43.73928" lon="7.33106">
        <ele>293.82</ele>
        <time>2014-07-06T18:39:01Z</time>
      </trkpt>
      <trkpt lat="43.73932" lon="7.33091">
        <ele>292.86</ele>
        <time>2014-07-06T18:39:03Z</time>
      </trkpt>
      <trkpt lat="43.73931" lon="7.33052">
        <ele>292.86</ele>
        <time>2014-07-06T18:39:10Z</time>
      </trkpt>
      <trkpt lat="43.73924" lon="7.33033">
        <ele>293.34</ele>
        <time>2014-07-06T18:39:13Z</time>
      </trkpt>
      <trkpt lat="43.73923" lon="7.32988">
        <ele>292.86</ele>
        <time>2014-07-06T18:39:19Z</time>
      </trkpt>
      <trkpt lat="43.73923" lon="7.32974">
        <ele>292.38</ele>
        <time>2014-07-06T18:39:21Z</time>
      </trkpt>
      <trkpt lat="43.73917" lon="7.32935">
        <ele>290.46</ele>
        <time>2014-07-06T18:39:26Z</time>
      </trkpt>
      <trkpt lat="43.73913" lon="7.32886">
        <ele>285.65</ele>
        <time>2014-07-06T18:39:33Z</time>
      </trkpt>
      <trkpt lat="43.73914" lon="7.32867">
        <ele>284.21</ele>
        <time>2014-07-06T18:39:36Z</time>
      </trkpt>
      <trkpt lat="43.73911" lon="7.32837">
        <ele>282.28</ele>
        <time>2014-07-06T18:39:40Z</time>
      </trkpt>
      <trkpt lat="43.73916" lon="7.32786">
        <ele>279.4</ele>
        <time>2014-07-06T18:39:48Z</time>
      </trkpt>
      <trkpt lat="43.73915" lon="7.32769">
        <ele>277.96</ele>
        <time>2014-07-06T18:39:52Z</time>
      </trkpt>
      <trkpt lat="43.7392" lon="7.32745">
        <ele>276.04</ele>
        <time>2014-07-06T18:39:56Z</time>
      </trkpt>
      <trkpt lat="43.7393" lon="7.3272">
        <ele>272.67</ele>
        <time>2014-07-06T18:40:00Z</time>
      </trkpt>
      <trkpt lat="43.73937" lon="7.32702">
        <ele>270.27</ele>
        <time>2014-07-06T18:40:03Z</time>
      </trkpt>
      <trkpt lat="43.73945" lon="7.32684">
        <ele>264.5</ele>
        <time>2014-07-06T18:40:11Z</time>
      </trkpt>
      <trkpt lat="43.73948" lon="7.3268">
        <ele>263.06</ele>
        <time>2014-07-06T18:40:43Z</time>
      </trkpt>
      <trkpt lat="43.73953" lon="7.3266">
        <ele>260.65</ele>
        <time>2014-07-06T18:40:50Z</time>
      </trkpt>
      <trkpt lat="43.73965" lon="7.32635">
        <ele>254.41</ele>
        <time>2014-07-06T18:40:58Z</time>
      </trkpt>
      <trkpt lat="43.73965" lon="7.32632">
        <ele>251.52</ele>
        <time>2014-07-06T18:41:02Z</time>
      </trkpt>
      <trkpt lat="43.7396" lon="7.32639">
        <ele>249.6</ele>
        <time>2014-07-06T18:41:06Z</time>
      </trkpt>
      <trkpt lat="43.73951" lon="7.32643">
        <ele>247.68</ele>
        <time>2014-07-06T18:41:10Z</time>
      </trkpt>
      <trkpt lat="43.73943" lon="7.32647">
        <ele>246.72</ele>
        <time>2014-07-06T18:41:14Z</time>
      </trkpt>
      <trkpt lat="43.73939" lon="7.32653">
        <ele>245.27</ele>
        <time>2014-07-06T18:41:23Z</time>
      </trkpt>
      <trkpt lat="43.73941" lon="7.32652">
        <ele>246.23</ele>
        <time>2014-07-06T18:41:28Z</time>
      </trkpt>
      <trkpt lat="43.73946" lon="7.32648">
        <ele>249.6</ele>
        <time>2014-07-06T18:41:35Z</time>
      </trkpt>
      <trkpt lat="43.73949" lon="7.32642">
        <ele>252.96</ele>
        <time>2014-07-06T18:41:44Z</time>
      </trkpt>
      <trkpt lat="43.73948" lon="7.32642">
        <ele>253.44</ele>
        <time>2014-07-06T18:41:45Z</time>
      </trkpt>
      <trkpt lat="43.73944" lon="7.32643">
        <ele>254.41</ele>
        <time>2014-07-06T18:41:48Z</time>
      </trkpt>
      <trkpt lat="43.73942" lon="7.32645">
        <ele>254.41</ele>
        <time>2014-07-06T18:41:51Z</time>
      </trkpt>
      <trkpt lat="43.73937" lon="7.32647">
        <ele>253.93</ele>
        <time>2014-07-06T18:41:59Z</time>
      </trkpt>
      <trkpt lat="43.7394" lon="7.32625">
        <ele>248.64</ele>
        <time>2014-07-06T18:42:07Z</time>
      </trkpt>
      <trkpt lat="43.73942" lon="7.3262">
        <ele>246.72</ele>
        <time>2014-07-06T18:42:10Z</time>
      </trkpt>
      <trkpt lat="43.73944" lon="7.32617">
        <ele>243.83</ele>
        <time>2014-07-06T18:42:16Z</time>
      </trkpt>
      <trkpt lat="43.73943" lon="7.32618">
        <ele>242.87</ele>
        <time>2014-07-06T18:42:24Z</time>
      </trkpt>
      <trkpt lat="43.73943" lon="7.32618">
        <ele>242.87</ele>
        <time>2014-07-06T18:42:25Z</time>
      </trkpt>
      <trkpt lat="43.73938" lon="7.32619">
        <ele>241.91</ele>
        <time>2014-07-06T18:42:29Z</time>
      </trkpt>
      <trkpt lat="43.73932" lon="7.32623">
        <ele>236.62</ele>
        <time>2014-07-06T18:42:38Z</time>
      </trkpt>
      <trkpt lat="43.73936" lon="7.32615">
        <ele>234.7</ele>
        <time>2014-07-06T18:42:43Z</time>
      </trkpt>
      <trkpt lat="43.7394" lon="7.32604">
        <ele>231.81</ele>
        <time>2014-07-06T18:42:47Z</time>
      </trkpt>
      <trkpt lat="43.73963" lon="7.32584">
        <ele>222.2</ele>
        <time>2014-07-06T18:42:58Z</time>
      </trkpt>
      <trkpt lat="43.73972" lon="7.32583">
        <ele>217.4</ele>
        <time>2014-07-06T18:43:05Z</time>
      </trkpt>
      <trkpt lat="43.73994" lon="7.32579">
        <ele>214.51</ele>
        <time>2014-07-06T18:43:13Z</time>
      </trkpt>
      <trkpt lat="43.74006" lon="7.32591">
        <ele>215.47</ele>
        <time>2014-07-06T18:43:19Z</time>
      </trkpt>
      <trkpt lat="43.74027" lon="7.32603">
        <ele>216.91</ele>
        <time>2014-07-06T18:43:26Z</time>
      </trkpt>
      <trkpt lat="43.74031" lon="7.32606">
        <ele>217.4</ele>
        <time>2014-07-06T18:43:28Z</time>
      </trkpt>
      <trkpt lat="43.74044" lon="7.3261">
        <ele>215.95</ele>
        <time>2014-07-06T18:43:32Z</time>
      </trkpt>
      <trkpt lat="43.74069" lon="7.32621">
        <ele>210.19</ele>
        <time>2014-07-06T18:43:39Z</time>
      </trkpt>
      <trkpt lat="43.74119" lon="7.32644">
        <ele>200.57</ele>
        <time>2014-07-06T18:43:47Z</time>
      </trkpt>
      <trkpt lat="43.74157" lon="7.32675">
        <ele>193.36</ele>
        <time>2014-07-06T18:43:54Z</time>
      </trkpt>
      <trkpt lat="43.74201" lon="7.32661">
        <ele>181.83</ele>
        <time>2014-07-06T18:44:02Z</time>
      </trkpt>
      <trkpt lat="43.74209" lon="7.32651">
        <ele>175.58</ele>
        <time>2014-07-06T18:44:08Z</time>
      </trkpt>
      <trkpt lat="43.74208" lon="7.32662">
        <ele>174.14</ele>
        <time>2014-07-06T18:44:11Z</time>
      </trkpt>
      <trkpt lat="43.74222" lon="7.32653">
        <ele>171.73</ele>
        <time>2014-07-06T18:44:16Z</time>
      </trkpt>
      <trkpt lat="43.74257" lon="7.32562">
        <ele>161.64</ele>
        <time>2014-07-06T18:44:26Z</time>
      </trkpt>
      <trkpt lat="43.74273" lon="7.32537">
        <ele>157.31</ele>
        <time>2014-07-06T18:44:29Z</time>
      </trkpt>
      <trkpt lat="43.74289" lon="7.32495">
        <ele>151.06</ele>
        <time>2014-07-06T18:44:33Z</time>
      </trkpt>
      <trkpt lat="43.74294" lon="7.32467">
        <ele>147.22</ele>
        <time>2014-07-06T18:44:38Z</time>
      </trkpt>
      <trkpt lat="43.74295" lon="7.32462">
        <ele>146.74</ele>
        <time>2014-07-06T18:44:47Z</time>
      </trkpt>
      <trkpt lat="43.74296" lon="7.32461">
        <ele>147.7</ele>
        <time>2014-07-06T18:44:56Z</time>
      </trkpt>
      <trkpt lat="43.74298" lon="7.32456">
        <ele>148.18</ele>
        <time>2014-07-06T18:45:14Z</time>
      </trkpt>
      <trkpt lat="43.743" lon="7.32452">
        <ele>147.7</ele>
        <time>2014-07-06T18:45:15Z</time>
      </trkpt>
      <trkpt lat="43.74315" lon="7.3243">
        <ele>144.82</ele>
        <time>2014-07-06T18:45:19Z</time>
      </trkpt>
      <trkpt lat="43.74326" lon="7.32421">
        <ele>142.89</ele>
        <time>2014-07-06T18:45:21Z</time>
      </trkpt>
      <trkpt lat="43.7435" lon="7.32396">
        <ele>137.13</ele>
        <time>2014-07-06T18:45:26Z</time>
      </trkpt>
      <trkpt lat="43.74365" lon="7.32351">
        <ele>130.88</ele>
        <time>2014-07-06T18:45:31Z</time>
      </trkpt>
      <trkpt lat="43.74398" lon="7.32249">
        <ele>117.42</ele>
        <time>2014-07-06T18:45:41Z</time>
      </trkpt>
      <trkpt lat="43.74399" lon="7.32197">
        <ele>112.61</ele>
        <time>2014-07-06T18:45:46Z</time>
      </trkpt>
      <trkpt lat="43.74387" lon="7.32155">
        <ele>109.25</ele>
        <time>2014-07-06T18:45:51Z</time>
      </trkpt>
      <trkpt lat="43.74357" lon="7.32124">
        <ele>103</ele>
        <time>2014-07-06T18:45:57Z</time>
      </trkpt>
      <trkpt lat="43.74338" lon="7.32092">
        <ele>98.67</ele>
        <time>2014-07-06T18:46:07Z</time>
      </trkpt>
      <trkpt lat="43.74346" lon="7.32073">
        <ele>99.15</ele>
        <time>2014-07-06T18:46:12Z</time>
      </trkpt>
      <trkpt lat="43.7435" lon="7.3207">
        <ele>98.67</ele>
        <time>2014-07-06T18:46:13Z</time>
      </trkpt>
      <trkpt lat="43.74368" lon="7.32056">
        <ele>98.19</ele>
        <time>2014-07-06T18:46:21Z</time>
      </trkpt>
      <trkpt lat="43.7437" lon="7.32053">
        <ele>98.19</ele>
        <time>2014-07-06T18:46:34Z</time>
      </trkpt>
      <trkpt lat="43.74372" lon="7.32051">
        <ele>98.19</ele>
        <time>2014-07-06T18:46:35Z</time>
      </trkpt>
      <trkpt lat="43.74374" lon="7.32048">
        <ele>98.19</ele>
        <time>2014-07-06T18:46:36Z</time>
      </trkpt>
      <trkpt lat="43.74376" lon="7.32046">
        <ele>98.19</ele>
        <time>2014-07-06T18:46:37Z</time>
      </trkpt>
      <trkpt lat="43.7438" lon="7.32043">
        <ele>97.71</ele>
        <time>2014-07-06T18:46:38Z</time>
      </trkpt>
      <trkpt lat="43.74396" lon="7.32029">
        <ele>97.23</ele>
        <time>2014-07-06T18:46:42Z</time>
      </trkpt>
      <trkpt lat="43.744" lon="7.32028">
        <ele>96.75</ele>
        <time>2014-07-06T18:46:43Z</time>
      </trkpt>
      <trkpt lat="43.74404" lon="7.32027">
        <ele>96.27</ele>
        <time>2014-07-06T18:46:44Z</time>
      </trkpt>
      <trkpt lat="43.74408" lon="7.32025">
        <ele>96.27</ele>
        <time>2014-07-06T18:46:45Z</time>
      </trkpt>
      <trkpt lat="43.74412" lon="7.32022">
        <ele>95.79</ele>
        <time>2014-07-06T18:46:46Z</time>
      </trkpt>
      <trkpt lat="43.74447" lon="7.31988">
        <ele>93.87</ele>
        <time>2014-07-06T18:46:57Z</time>
      </trkpt>
      <trkpt lat="43.74448" lon="7.31983">
        <ele>93.87</ele>
        <time>2014-07-06T18:46:58Z</time>
      </trkpt>
      <trkpt lat="43.74448" lon="7.31977">
        <ele>93.87</ele>
        <time>2014-07-06T18:46:59Z</time>
      </trkpt>
      <trkpt lat="43.74446" lon="7.31971">
        <ele>93.87</ele>
        <time>2014-07-06T18:47:00Z</time>
      </trkpt>
      <trkpt lat="43.74445" lon="7.31965">
        <ele>94.35</ele>
        <time>2014-07-06T18:47:01Z</time>
      </trkpt>
      <trkpt lat="43.74443" lon="7.31959">
        <ele>93.87</ele>
        <time>2014-07-06T18:47:02Z</time>
      </trkpt>
      <trkpt lat="43.74404" lon="7.31843">
        <ele>91.46</ele>
        <time>2014-07-06T18:47:17Z</time>
      </trkpt>
      <trkpt lat="43.74395" lon="7.31812">
        <ele>90.5</ele>
        <time>2014-07-06T18:47:21Z</time>
      </trkpt>
      <trkpt lat="43.74395" lon="7.31804">
        <ele>90.02</ele>
        <time>2014-07-06T18:47:22Z</time>
      </trkpt>
      <trkpt lat="43.74394" lon="7.31795">
        <ele>90.02</ele>
        <time>2014-07-06T18:47:23Z</time>
      </trkpt>
      <trkpt lat="43.74392" lon="7.31787">
        <ele>89.54</ele>
        <time>2014-07-06T18:47:24Z</time>
      </trkpt>
      <trkpt lat="43.74388" lon="7.31781">
        <ele>89.54</ele>
        <time>2014-07-06T18:47:25Z</time>
      </trkpt>
      <trkpt lat="43.74384" lon="7.31777">
        <ele>89.54</ele>
        <time>2014-07-06T18:47:26Z</time>
      </trkpt>
      <trkpt lat="43.74379" lon="7.31774">
        <ele>89.54</ele>
        <time>2014-07-06T18:47:27Z</time>
      </trkpt>
      <trkpt lat="43.74375" lon="7.3177">
        <ele>89.54</ele>
        <time>2014-07-06T18:47:28Z</time>
      </trkpt>
      <trkpt lat="43.74371" lon="7.31767">
        <ele>89.54</ele>
        <time>2014-07-06T18:47:29Z</time>
      </trkpt>
      <trkpt lat="43.74368" lon="7.31762">
        <ele>89.54</ele>
        <time>2014-07-06T18:47:30Z</time>
      </trkpt>
      <trkpt lat="43.74365" lon="7.31757">
        <ele>89.06</ele>
        <time>2014-07-06T18:47:31Z</time>
      </trkpt>
      <trkpt lat="43.74363" lon="7.31751">
        <ele>89.06</ele>
        <time>2014-07-06T18:47:32Z</time>
      </trkpt>
      <trkpt lat="43.74351" lon="7.31724">
        <ele>88.1</ele>
        <time>2014-07-06T18:47:36Z</time>
      </trkpt>
      <trkpt lat="43.7431" lon="7.31617">
        <ele>85.69</ele>
        <time>2014-07-06T18:47:50Z</time>
      </trkpt>
      <trkpt lat="43.74273" lon="7.31523">
        <ele>82.33</ele>
        <time>2014-07-06T18:48:03Z</time>
      </trkpt>
      <trkpt lat="43.74224" lon="7.31395">
        <ele>79.93</ele>
        <time>2014-07-06T18:48:19Z</time>
      </trkpt>
      <trkpt lat="43.74183" lon="7.3129">
        <ele>76.08</ele>
        <time>2014-07-06T18:48:31Z</time>
      </trkpt>
      <trkpt lat="43.74142" lon="7.31188">
        <ele>74.64</ele>
        <time>2014-07-06T18:48:44Z</time>
      </trkpt>
      <trkpt lat="43.74128" lon="7.31151">
        <ele>74.16</ele>
        <time>2014-07-06T18:48:49Z</time>
      </trkpt>
      <trkpt lat="43.74127" lon="7.31144">
        <ele>74.16</ele>
        <time>2014-07-06T18:48:50Z</time>
      </trkpt>
      <trkpt lat="43.74127" lon="7.31136">
        <ele>74.16</ele>
        <time>2014-07-06T18:48:51Z</time>
      </trkpt>
      <trkpt lat="43.74127" lon="7.31129">
        <ele>74.16</ele>
        <time>2014-07-06T18:48:52Z</time>
      </trkpt>
      <trkpt lat="43.74127" lon="7.31122">
        <ele>74.64</ele>
        <time>2014-07-06T18:48:53Z</time>
      </trkpt>
      <trkpt lat="43.74127" lon="7.31115">
        <ele>74.64</ele>
        <time>2014-07-06T18:48:54Z</time>
      </trkpt>
      <trkpt lat="43.74125" lon="7.31108">
        <ele>75.12</ele>
        <time>2014-07-06T18:48:55Z</time>
      </trkpt>
      <trkpt lat="43.74123" lon="7.31102">
        <ele>75.12</ele>
        <time>2014-07-06T18:48:56Z</time>
      </trkpt>
      <trkpt lat="43.7412" lon="7.31097">
        <ele>75.6</ele>
        <time>2014-07-06T18:48:57Z</time>
      </trkpt>
      <trkpt lat="43.74118" lon="7.3109">
        <ele>75.6</ele>
        <time>2014-07-06T18:48:58Z</time>
      </trkpt>
      <trkpt lat="43.74116" lon="7.31083">
        <ele>75.6</ele>
        <time>2014-07-06T18:48:59Z</time>
      </trkpt>
      <trkpt lat="43.74115" lon="7.31076">
        <ele>75.12</ele>
        <time>2014-07-06T18:49:00Z</time>
      </trkpt>
      <trkpt lat="43.7411" lon="7.31048">
        <ele>75.6</ele>
        <time>2014-07-06T18:49:04Z</time>
      </trkpt>
      <trkpt lat="43.74107" lon="7.30948">
        <ele>73.68</ele>
        <time>2014-07-06T18:49:17Z</time>
      </trkpt>
      <trkpt lat="43.74107" lon="7.3093">
        <ele>72.72</ele>
        <time>2014-07-06T18:49:25Z</time>
      </trkpt>
      <trkpt lat="43.74106" lon="7.30929">
        <ele>73.68</ele>
        <time>2014-07-06T18:49:51Z</time>
      </trkpt>
      <trkpt lat="43.74108" lon="7.30909">
        <ele>72.72</ele>
        <time>2014-07-06T18:49:57Z</time>
      </trkpt>
      <trkpt lat="43.74108" lon="7.30853">
        <ele>70.79</ele>
        <time>2014-07-06T18:50:04Z</time>
      </trkpt>
      <trkpt lat="43.74107" lon="7.30844">
        <ele>71.27</ele>
        <time>2014-07-06T18:50:05Z</time>
      </trkpt>
      <trkpt lat="43.74104" lon="7.30836">
        <ele>71.27</ele>
        <time>2014-07-06T18:50:06Z</time>
      </trkpt>
      <trkpt lat="43.741" lon="7.30829">
        <ele>71.27</ele>
        <time>2014-07-06T18:50:07Z</time>
      </trkpt>
      <trkpt lat="43.74095" lon="7.30823">
        <ele>71.27</ele>
        <time>2014-07-06T18:50:08Z</time>
      </trkpt>
      <trkpt lat="43.74091" lon="7.30816">
        <ele>71.76</ele>
        <time>2014-07-06T18:50:09Z</time>
      </trkpt>
      <trkpt lat="43.74086" lon="7.3081">
        <ele>71.76</ele>
        <time>2014-07-06T18:50:10Z</time>
      </trkpt>
      <trkpt lat="43.74081" lon="7.30804">
        <ele>71.76</ele>
        <time>2014-07-06T18:50:11Z</time>
      </trkpt>
      <trkpt lat="43.7404" lon="7.30753">
        <ele>71.76</ele>
        <time>2014-07-06T18:50:20Z</time>
      </trkpt>
      <trkpt lat="43.74" lon="7.30695">
        <ele>70.79</ele>
        <time>2014-07-06T18:50:31Z</time>
      </trkpt>
      <trkpt lat="43.73994" lon="7.30687">
        <ele>69.83</ele>
        <time>2014-07-06T18:50:35Z</time>
      </trkpt>
      <trkpt lat="43.73991" lon="7.30684">
        <ele>69.35</ele>
        <time>2014-07-06T18:50:40Z</time>
      </trkpt>
      <trkpt lat="43.73989" lon="7.30683">
        <ele>69.35</ele>
        <time>2014-07-06T18:50:41Z</time>
      </trkpt>
      <trkpt lat="43.73986" lon="7.30682">
        <ele>69.35</ele>
        <time>2014-07-06T18:50:42Z</time>
      </trkpt>
      <trkpt lat="43.73984" lon="7.30683">
        <ele>69.35</ele>
        <time>2014-07-06T18:50:43Z</time>
      </trkpt>
      <trkpt lat="43.73981" lon="7.30685">
        <ele>69.83</ele>
        <time>2014-07-06T18:50:44Z</time>
      </trkpt>
      <trkpt lat="43.73977" lon="7.30688">
        <ele>70.31</ele>
        <time>2014-07-06T18:50:45Z</time>
      </trkpt>
      <trkpt lat="43.73973" lon="7.30692">
        <ele>70.31</ele>
        <time>2014-07-06T18:50:46Z</time>
      </trkpt>
      <trkpt lat="43.73969" lon="7.30698">
        <ele>70.79</ele>
        <time>2014-07-06T18:50:47Z</time>
      </trkpt>
      <trkpt lat="43.7392" lon="7.3075">
        <ele>73.2</ele>
        <time>2014-07-06T18:50:58Z</time>
      </trkpt>
      <trkpt lat="43.73908" lon="7.30765">
        <ele>73.68</ele>
        <time>2014-07-06T18:51:03Z</time>
      </trkpt>
      <trkpt lat="43.73896" lon="7.30775">
        <ele>72.72</ele>
        <time>2014-07-06T18:51:06Z</time>
      </trkpt>
      <trkpt lat="43.73892" lon="7.30776">
        <ele>72.72</ele>
        <time>2014-07-06T18:51:07Z</time>
      </trkpt>
      <trkpt lat="43.73888" lon="7.30777">
        <ele>72.72</ele>
        <time>2014-07-06T18:51:08Z</time>
      </trkpt>
      <trkpt lat="43.73885" lon="7.30777">
        <ele>72.24</ele>
        <time>2014-07-06T18:51:09Z</time>
      </trkpt>
      <trkpt lat="43.7388" lon="7.30776">
        <ele>71.76</ele>
        <time>2014-07-06T18:51:10Z</time>
      </trkpt>
      <trkpt lat="43.73876" lon="7.30774">
        <ele>71.76</ele>
        <time>2014-07-06T18:51:11Z</time>
      </trkpt>
      <trkpt lat="43.73823" lon="7.30746">
        <ele>70.79</ele>
        <time>2014-07-06T18:51:21Z</time>
      </trkpt>
      <trkpt lat="43.73818" lon="7.30743">
        <ele>70.79</ele>
        <time>2014-07-06T18:51:22Z</time>
      </trkpt>
      <trkpt lat="43.73813" lon="7.3074">
        <ele>70.79</ele>
        <time>2014-07-06T18:51:23Z</time>
      </trkpt>
      <trkpt lat="43.73808" lon="7.30736">
        <ele>70.79</ele>
        <time>2014-07-06T18:51:24Z</time>
      </trkpt>
      <trkpt lat="43.73803" lon="7.30732">
        <ele>70.31</ele>
        <time>2014-07-06T18:51:25Z</time>
      </trkpt>
      <trkpt lat="43.73759" lon="7.30695">
        <ele>67.43</ele>
        <time>2014-07-06T18:51:34Z</time>
      </trkpt>
      <trkpt lat="43.73689" lon="7.30622">
        <ele>61.66</ele>
        <time>2014-07-06T18:51:49Z</time>
      </trkpt>
      <trkpt lat="43.73675" lon="7.30607">
        <ele>60.7</ele>
        <time>2014-07-06T18:51:52Z</time>
      </trkpt>
      <trkpt lat="43.73671" lon="7.306">
        <ele>59.74</ele>
        <time>2014-07-06T18:51:53Z</time>
      </trkpt>
      <trkpt lat="43.73664" lon="7.30587">
        <ele>58.78</ele>
        <time>2014-07-06T18:51:55Z</time>
      </trkpt>
      <trkpt lat="43.73614" lon="7.305">
        <ele>56.86</ele>
        <time>2014-07-06T18:52:08Z</time>
      </trkpt>
      <trkpt lat="43.73586" lon="7.30432">
        <ele>56.37</ele>
        <time>2014-07-06T18:52:17Z</time>
      </trkpt>
      <trkpt lat="43.73556" lon="7.30324">
        <ele>57.82</ele>
        <time>2014-07-06T18:52:31Z</time>
      </trkpt>
      <trkpt lat="43.73555" lon="7.30318">
        <ele>57.82</ele>
        <time>2014-07-06T18:52:32Z</time>
      </trkpt>
      <trkpt lat="43.73553" lon="7.30311">
        <ele>58.3</ele>
        <time>2014-07-06T18:52:33Z</time>
      </trkpt>
      <trkpt lat="43.73541" lon="7.3024">
        <ele>58.78</ele>
        <time>2014-07-06T18:52:42Z</time>
      </trkpt>
      <trkpt lat="43.7354" lon="7.30232">
        <ele>58.78</ele>
        <time>2014-07-06T18:52:43Z</time>
      </trkpt>
      <trkpt lat="43.73539" lon="7.30224">
        <ele>59.26</ele>
        <time>2014-07-06T18:52:44Z</time>
      </trkpt>
      <trkpt lat="43.73533" lon="7.30193">
        <ele>59.26</ele>
        <time>2014-07-06T18:52:48Z</time>
      </trkpt>
      <trkpt lat="43.73533" lon="7.30185">
        <ele>59.26</ele>
        <time>2014-07-06T18:52:49Z</time>
      </trkpt>
      <trkpt lat="43.7353" lon="7.30145">
        <ele>58.78</ele>
        <time>2014-07-06T18:52:54Z</time>
      </trkpt>
      <trkpt lat="43.73529" lon="7.30138">
        <ele>59.26</ele>
        <time>2014-07-06T18:52:55Z</time>
      </trkpt>
      <trkpt lat="43.73528" lon="7.3013">
        <ele>59.26</ele>
        <time>2014-07-06T18:52:56Z</time>
      </trkpt>
      <trkpt lat="43.73526" lon="7.30118">
        <ele>59.26</ele>
        <time>2014-07-06T18:52:58Z</time>
      </trkpt>
      <trkpt lat="43.73527" lon="7.30114">
        <ele>59.26</ele>
        <time>2014-07-06T18:52:59Z</time>
      </trkpt>
      <trkpt lat="43.73528" lon="7.3011">
        <ele>59.26</ele>
        <time>2014-07-06T18:53:00Z</time>
      </trkpt>
      <trkpt lat="43.73529" lon="7.30104">
        <ele>59.26</ele>
        <time>2014-07-06T18:53:01Z</time>
      </trkpt>
      <trkpt lat="43.73529" lon="7.30099">
        <ele>59.26</ele>
        <time>2014-07-06T18:53:02Z</time>
      </trkpt>
      <trkpt lat="43.7353" lon="7.30093">
        <ele>58.78</ele>
        <time>2014-07-06T18:53:03Z</time>
      </trkpt>
      <trkpt lat="43.7353" lon="7.30077">
        <ele>58.3</ele>
        <time>2014-07-06T18:53:06Z</time>
      </trkpt>
      <trkpt lat="43.73531" lon="7.30072">
        <ele>58.3</ele>
        <time>2014-07-06T18:53:07Z</time>
      </trkpt>
      <trkpt lat="43.73531" lon="7.30067">
        <ele>58.3</ele>
        <time>2014-07-06T18:53:08Z</time>
      </trkpt>
      <trkpt lat="43.73524" lon="7.30047">
        <ele>58.3</ele>
        <time>2014-07-06T18:53:12Z</time>
      </trkpt>
      <trkpt lat="43.7351" lon="7.30031">
        <ele>57.82</ele>
        <time>2014-07-06T18:53:16Z</time>
      </trkpt>
      <trkpt lat="43.73507" lon="7.30026">
        <ele>57.82</ele>
        <time>2014-07-06T18:53:17Z</time>
      </trkpt>
      <trkpt lat="43.73505" lon="7.30019">
        <ele>57.34</ele>
        <time>2014-07-06T18:53:18Z</time>
      </trkpt>
      <trkpt lat="43.73503" lon="7.30011">
        <ele>57.34</ele>
        <time>2014-07-06T18:53:19Z</time>
      </trkpt>
      <trkpt lat="43.73501" lon="7.30003">
        <ele>56.86</ele>
        <time>2014-07-06T18:53:20Z</time>
      </trkpt>
      <trkpt lat="43.735" lon="7.29994">
        <ele>56.37</ele>
        <time>2014-07-06T18:53:21Z</time>
      </trkpt>
      <trkpt lat="43.73484" lon="7.29853">
        <ele>56.86</ele>
        <time>2014-07-06T18:53:38Z</time>
      </trkpt>
      <trkpt lat="43.73468" lon="7.29736">
        <ele>56.37</ele>
        <time>2014-07-06T18:53:52Z</time>
      </trkpt>
      <trkpt lat="43.73467" lon="7.29728">
        <ele>56.37</ele>
        <time>2014-07-06T18:53:53Z</time>
      </trkpt>
      <trkpt lat="43.73466" lon="7.29719">
        <ele>55.89</ele>
        <time>2014-07-06T18:53:54Z</time>
      </trkpt>
      <trkpt lat="43.73462" lon="7.29679">
        <ele>54.93</ele>
        <time>2014-07-06T18:54:03Z</time>
      </trkpt>
      <trkpt lat="43.73458" lon="7.2965">
        <ele>55.89</ele>
        <time>2014-07-06T18:54:14Z</time>
      </trkpt>
      <trkpt lat="43.73447" lon="7.29565">
        <ele>55.41</ele>
        <time>2014-07-06T18:54:26Z</time>
      </trkpt>
      <trkpt lat="43.73446" lon="7.29558">
        <ele>55.41</ele>
        <time>2014-07-06T18:54:27Z</time>
      </trkpt>
      <trkpt lat="43.73446" lon="7.29551">
        <ele>54.93</ele>
        <time>2014-07-06T18:54:28Z</time>
      </trkpt>
      <trkpt lat="43.73431" lon="7.29441">
        <ele>54.93</ele>
        <time>2014-07-06T18:54:43Z</time>
      </trkpt>
      <trkpt lat="43.73425" lon="7.29394">
        <ele>54.93</ele>
        <time>2014-07-06T18:54:49Z</time>
      </trkpt>
      <trkpt lat="43.73418" lon="7.29329">
        <ele>56.37</ele>
        <time>2014-07-06T18:54:57Z</time>
      </trkpt>
      <trkpt lat="43.73403" lon="7.29218">
        <ele>53.49</ele>
        <time>2014-07-06T18:55:11Z</time>
      </trkpt>
      <trkpt lat="43.73398" lon="7.29193">
        <ele>53.49</ele>
        <time>2014-07-06T18:55:14Z</time>
      </trkpt>
      <trkpt lat="43.73397" lon="7.29185">
        <ele>53.97</ele>
        <time>2014-07-06T18:55:15Z</time>
      </trkpt>
      <trkpt lat="43.73386" lon="7.29124">
        <ele>54.45</ele>
        <time>2014-07-06T18:55:22Z</time>
      </trkpt>
      <trkpt lat="43.73381" lon="7.291">
        <ele>54.45</ele>
        <time>2014-07-06T18:55:25Z</time>
      </trkpt>
      <trkpt lat="43.73379" lon="7.29092">
        <ele>54.45</ele>
        <time>2014-07-06T18:55:26Z</time>
      </trkpt>
      <trkpt lat="43.73377" lon="7.29085">
        <ele>54.45</ele>
        <time>2014-07-06T18:55:27Z</time>
      </trkpt>
      <trkpt lat="43.73375" lon="7.29077">
        <ele>54.45</ele>
        <time>2014-07-06T18:55:28Z</time>
      </trkpt>
      <trkpt lat="43.73373" lon="7.29069">
        <ele>54.45</ele>
        <time>2014-07-06T18:55:29Z</time>
      </trkpt>
      <trkpt lat="43.73345" lon="7.28962">
        <ele>52.53</ele>
        <time>2014-07-06T18:55:43Z</time>
      </trkpt>
      <trkpt lat="43.73343" lon="7.28954">
        <ele>52.05</ele>
        <time>2014-07-06T18:55:44Z</time>
      </trkpt>
      <trkpt lat="43.73336" lon="7.28926">
        <ele>50.61</ele>
        <time>2014-07-06T18:55:48Z</time>
      </trkpt>
      <trkpt lat="43.73319" lon="7.28874">
        <ele>47.24</ele>
        <time>2014-07-06T18:55:58Z</time>
      </trkpt>
      <trkpt lat="43.73284" lon="7.28782">
        <ele>47.72</ele>
        <time>2014-07-06T18:56:11Z</time>
      </trkpt>
      <trkpt lat="43.73282" lon="7.28775">
        <ele>47.72</ele>
        <time>2014-07-06T18:56:12Z</time>
      </trkpt>
      <trkpt lat="43.73253" lon="7.28699">
        <ele>47.24</ele>
        <time>2014-07-06T18:56:23Z</time>
      </trkpt>
      <trkpt lat="43.73239" lon="7.28658">
        <ele>47.24</ele>
        <time>2014-07-06T18:56:29Z</time>
      </trkpt>
      <trkpt lat="43.73237" lon="7.28651">
        <ele>47.24</ele>
        <time>2014-07-06T18:56:30Z</time>
      </trkpt>
      <trkpt lat="43.73236" lon="7.28644">
        <ele>47.24</ele>
        <time>2014-07-06T18:56:31Z</time>
      </trkpt>
      <trkpt lat="43.73235" lon="7.28637">
        <ele>47.24</ele>
        <time>2014-07-06T18:56:32Z</time>
      </trkpt>
      <trkpt lat="43.73234" lon="7.28631">
        <ele>47.24</ele>
        <time>2014-07-06T18:56:33Z</time>
      </trkpt>
      <trkpt lat="43.73233" lon="7.28609">
        <ele>46.76</ele>
        <time>2014-07-06T18:56:38Z</time>
      </trkpt>
      <trkpt lat="43.73235" lon="7.28607">
        <ele>46.76</ele>
        <time>2014-07-06T18:56:39Z</time>
      </trkpt>
      <trkpt lat="43.73238" lon="7.28605">
        <ele>47.24</ele>
        <time>2014-07-06T18:56:40Z</time>
      </trkpt>
      <trkpt lat="43.7324" lon="7.28603">
        <ele>47.24</ele>
        <time>2014-07-06T18:56:41Z</time>
      </trkpt>
      <trkpt lat="43.7324" lon="7.28599">
        <ele>47.24</ele>
        <time>2014-07-06T18:56:42Z</time>
      </trkpt>
      <trkpt lat="43.7324" lon="7.28597">
        <ele>47.24</ele>
        <time>2014-07-06T18:56:43Z</time>
      </trkpt>
      <trkpt lat="43.73241" lon="7.28593">
        <ele>47.72</ele>
        <time>2014-07-06T18:56:55Z</time>
      </trkpt>
      <trkpt lat="43.73241" lon="7.28589">
        <ele>47.72</ele>
        <time>2014-07-06T18:56:56Z</time>
      </trkpt>
      <trkpt lat="43.7324" lon="7.28585">
        <ele>47.72</ele>
        <time>2014-07-06T18:56:57Z</time>
      </trkpt>
      <trkpt lat="43.73239" lon="7.2858">
        <ele>47.24</ele>
        <time>2014-07-06T18:56:58Z</time>
      </trkpt>
      <trkpt lat="43.73238" lon="7.28574">
        <ele>47.24</ele>
        <time>2014-07-06T18:56:59Z</time>
      </trkpt>
      <trkpt lat="43.73232" lon="7.2855">
        <ele>46.28</ele>
        <time>2014-07-06T18:57:03Z</time>
      </trkpt>
      <trkpt lat="43.73231" lon="7.28543">
        <ele>46.28</ele>
        <time>2014-07-06T18:57:04Z</time>
      </trkpt>
      <trkpt lat="43.73227" lon="7.28514">
        <ele>46.76</ele>
        <time>2014-07-06T18:57:08Z</time>
      </trkpt>
      <trkpt lat="43.73226" lon="7.28507">
        <ele>46.76</ele>
        <time>2014-07-06T18:57:09Z</time>
      </trkpt>
      <trkpt lat="43.73226" lon="7.285">
        <ele>46.76</ele>
        <time>2014-07-06T18:57:10Z</time>
      </trkpt>
      <trkpt lat="43.73225" lon="7.28485">
        <ele>46.76</ele>
        <time>2014-07-06T18:57:12Z</time>
      </trkpt>
      <trkpt lat="43.73223" lon="7.28478">
        <ele>47.24</ele>
        <time>2014-07-06T18:57:13Z</time>
      </trkpt>
      <trkpt lat="43.7322" lon="7.28472">
        <ele>47.24</ele>
        <time>2014-07-06T18:57:14Z</time>
      </trkpt>
      <trkpt lat="43.73215" lon="7.28467">
        <ele>47.24</ele>
        <time>2014-07-06T18:57:15Z</time>
      </trkpt>
      <trkpt lat="43.7321" lon="7.28462">
        <ele>47.24</ele>
        <time>2014-07-06T18:57:16Z</time>
      </trkpt>
      <trkpt lat="43.73204" lon="7.28459">
        <ele>46.76</ele>
        <time>2014-07-06T18:57:17Z</time>
      </trkpt>
      <trkpt lat="43.73198" lon="7.28455">
        <ele>46.76</ele>
        <time>2014-07-06T18:57:18Z</time>
      </trkpt>
      <trkpt lat="43.73122" lon="7.28387">
        <ele>47.24</ele>
        <time>2014-07-06T18:57:32Z</time>
      </trkpt>
      <trkpt lat="43.73061" lon="7.28296">
        <ele>49.65</ele>
        <time>2014-07-06T18:57:45Z</time>
      </trkpt>
      <trkpt lat="43.73" lon="7.28224">
        <ele>50.13</ele>
        <time>2014-07-06T18:57:57Z</time>
      </trkpt>
      <trkpt lat="43.72969" lon="7.28207">
        <ele>49.65</ele>
        <time>2014-07-06T18:58:02Z</time>
      </trkpt>
      <trkpt lat="43.72963" lon="7.28205">
        <ele>49.65</ele>
        <time>2014-07-06T18:58:03Z</time>
      </trkpt>
      <trkpt lat="43.72877" lon="7.28205">
        <ele>48.2</ele>
        <time>2014-07-06T18:58:16Z</time>
      </trkpt>
      <trkpt lat="43.72778" lon="7.28226">
        <ele>48.68</ele>
        <time>2014-07-06T18:58:31Z</time>
      </trkpt>
      <trkpt lat="43.72702" lon="7.28285">
        <ele>48.2</ele>
        <time>2014-07-06T18:58:44Z</time>
      </trkpt>
      <trkpt lat="43.72626" lon="7.28377">
        <ele>46.76</ele>
        <time>2014-07-06T18:58:59Z</time>
      </trkpt>
      <trkpt lat="43.72563" lon="7.2848">
        <ele>46.28</ele>
        <time>2014-07-06T18:59:14Z</time>
      </trkpt>
      <trkpt lat="43.72548" lon="7.28509">
        <ele>46.28</ele>
        <time>2014-07-06T18:59:18Z</time>
      </trkpt>
      <trkpt lat="43.72543" lon="7.28516">
        <ele>46.28</ele>
        <time>2014-07-06T18:59:19Z</time>
      </trkpt>
      <trkpt lat="43.72538" lon="7.28522">
        <ele>45.8</ele>
        <time>2014-07-06T18:59:20Z</time>
      </trkpt>
      <trkpt lat="43.72533" lon="7.28528">
        <ele>45.32</ele>
        <time>2014-07-06T18:59:21Z</time>
      </trkpt>
      <trkpt lat="43.72529" lon="7.28535">
        <ele>44.84</ele>
        <time>2014-07-06T18:59:22Z</time>
      </trkpt>
      <trkpt lat="43.72526" lon="7.28542">
        <ele>44.36</ele>
        <time>2014-07-06T18:59:23Z</time>
      </trkpt>
      <trkpt lat="43.72513" lon="7.28572">
        <ele>44.36</ele>
        <time>2014-07-06T18:59:27Z</time>
      </trkpt>
      <trkpt lat="43.72509" lon="7.28578">
        <ele>43.88</ele>
        <time>2014-07-06T18:59:28Z</time>
      </trkpt>
      <trkpt lat="43.72492" lon="7.28607">
        <ele>42.92</ele>
        <time>2014-07-06T18:59:33Z</time>
      </trkpt>
      <trkpt lat="43.72492" lon="7.28611">
        <ele>42.92</ele>
        <time>2014-07-06T18:59:34Z</time>
      </trkpt>
      <trkpt lat="43.72494" lon="7.28615">
        <ele>42.92</ele>
        <time>2014-07-06T18:59:35Z</time>
      </trkpt>
      <trkpt lat="43.72496" lon="7.28618">
        <ele>42.92</ele>
        <time>2014-07-06T18:59:36Z</time>
      </trkpt>
      <trkpt lat="43.72495" lon="7.28622">
        <ele>43.4</ele>
        <time>2014-07-06T18:59:37Z</time>
      </trkpt>
      <trkpt lat="43.72493" lon="7.28626">
        <ele>43.4</ele>
        <time>2014-07-06T18:59:38Z</time>
      </trkpt>
      <trkpt lat="43.72491" lon="7.2863">
        <ele>43.4</ele>
        <time>2014-07-06T18:59:39Z</time>
      </trkpt>
      <trkpt lat="43.72487" lon="7.28633">
        <ele>42.92</ele>
        <time>2014-07-06T18:59:40Z</time>
      </trkpt>
      <trkpt lat="43.72427" lon="7.2869">
        <ele>40.99</ele>
        <time>2014-07-06T18:59:53Z</time>
      </trkpt>
      <trkpt lat="43.72401" lon="7.28707">
        <ele>40.51</ele>
        <time>2014-07-06T18:59:58Z</time>
      </trkpt>
      <trkpt lat="43.72389" lon="7.28712">
        <ele>40.51</ele>
        <time>2014-07-06T19:00:00Z</time>
      </trkpt>
      <trkpt lat="43.72324" lon="7.28736">
        <ele>40.03</ele>
        <time>2014-07-06T19:00:13Z</time>
      </trkpt>
      <trkpt lat="43.723" lon="7.28733">
        <ele>39.55</ele>
        <time>2014-07-06T19:00:23Z</time>
      </trkpt>
      <trkpt lat="43.723" lon="7.28734">
        <ele>39.55</ele>
        <time>2014-07-06T19:00:27Z</time>
      </trkpt>
      <trkpt lat="43.72301" lon="7.28735">
        <ele>39.55</ele>
        <time>2014-07-06T19:00:29Z</time>
      </trkpt>
      <trkpt lat="43.72308" lon="7.28738">
        <ele>38.59</ele>
        <time>2014-07-06T19:00:33Z</time>
      </trkpt>
      <trkpt lat="43.72308" lon="7.28741">
        <ele>38.11</ele>
        <time>2014-07-06T19:00:34Z</time>
      </trkpt>
      <trkpt lat="43.72308" lon="7.28745">
        <ele>38.11</ele>
        <time>2014-07-06T19:00:35Z</time>
      </trkpt>
      <trkpt lat="43.72307" lon="7.28749">
        <ele>38.11</ele>
        <time>2014-07-06T19:00:36Z</time>
      </trkpt>
      <trkpt lat="43.72307" lon="7.28754">
        <ele>38.11</ele>
        <time>2014-07-06T19:00:37Z</time>
      </trkpt>
      <trkpt lat="43.72306" lon="7.28758">
        <ele>38.59</ele>
        <time>2014-07-06T19:00:38Z</time>
      </trkpt>
      <trkpt lat="43.72305" lon="7.28774">
        <ele>39.07</ele>
        <time>2014-07-06T19:00:41Z</time>
      </trkpt>
      <trkpt lat="43.72304" lon="7.2878">
        <ele>39.07</ele>
        <time>2014-07-06T19:00:42Z</time>
      </trkpt>
      <trkpt lat="43.72298" lon="7.28862">
        <ele>39.55</ele>
        <time>2014-07-06T19:00:54Z</time>
      </trkpt>
      <trkpt lat="43.72297" lon="7.28882">
        <ele>39.07</ele>
        <time>2014-07-06T19:00:57Z</time>
      </trkpt>
      <trkpt lat="43.72297" lon="7.2889">
        <ele>38.59</ele>
        <time>2014-07-06T19:00:58Z</time>
      </trkpt>
      <trkpt lat="43.72289" lon="7.28978">
        <ele>38.11</ele>
        <time>2014-07-06T19:01:08Z</time>
      </trkpt>
      <trkpt lat="43.7228" lon="7.29086">
        <ele>40.99</ele>
        <time>2014-07-06T19:01:22Z</time>
      </trkpt>
      <trkpt lat="43.72276" lon="7.29137">
        <ele>42.44</ele>
        <time>2014-07-06T19:01:31Z</time>
      </trkpt>
      <trkpt lat="43.7227" lon="7.29173">
        <ele>40.99</ele>
        <time>2014-07-06T19:01:40Z</time>
      </trkpt>
      <trkpt lat="43.72268" lon="7.29177">
        <ele>40.99</ele>
        <time>2014-07-06T19:01:41Z</time>
      </trkpt>
      <trkpt lat="43.72265" lon="7.29181">
        <ele>40.99</ele>
        <time>2014-07-06T19:01:42Z</time>
      </trkpt>
      <trkpt lat="43.72261" lon="7.29183">
        <ele>40.51</ele>
        <time>2014-07-06T19:01:43Z</time>
      </trkpt>
      <trkpt lat="43.72257" lon="7.29184">
        <ele>40.03</ele>
        <time>2014-07-06T19:01:44Z</time>
      </trkpt>
      <trkpt lat="43.72253" lon="7.29184">
        <ele>39.55</ele>
        <time>2014-07-06T19:01:45Z</time>
      </trkpt>
      <trkpt lat="43.7225" lon="7.29184">
        <ele>39.55</ele>
        <time>2014-07-06T19:01:46Z</time>
      </trkpt>
      <trkpt lat="43.72249" lon="7.29184">
        <ele>39.07</ele>
        <time>2014-07-06T19:01:47Z</time>
      </trkpt>
      <trkpt lat="43.72247" lon="7.29185">
        <ele>38.59</ele>
        <time>2014-07-06T19:01:48Z</time>
      </trkpt>
      <trkpt lat="43.72245" lon="7.29185">
        <ele>38.11</ele>
        <time>2014-07-06T19:01:49Z</time>
      </trkpt>
      <trkpt lat="43.72243" lon="7.29185">
        <ele>38.11</ele>
        <time>2014-07-06T19:01:50Z</time>
      </trkpt>
      <trkpt lat="43.72241" lon="7.29186">
        <ele>38.11</ele>
        <time>2014-07-06T19:01:51Z</time>
      </trkpt>
      <trkpt lat="43.72237" lon="7.29186">
        <ele>38.11</ele>
        <time>2014-07-06T19:01:52Z</time>
      </trkpt>
      <trkpt lat="43.72231" lon="7.29186">
        <ele>37.63</ele>
        <time>2014-07-06T19:01:53Z</time>
      </trkpt>
      <trkpt lat="43.72225" lon="7.29185">
        <ele>37.15</ele>
        <time>2014-07-06T19:01:54Z</time>
      </trkpt>
      <trkpt lat="43.72219" lon="7.29185">
        <ele>37.15</ele>
        <time>2014-07-06T19:01:55Z</time>
      </trkpt>
      <trkpt lat="43.7212" lon="7.29181">
        <ele>35.23</ele>
        <time>2014-07-06T19:02:09Z</time>
      </trkpt>
      <trkpt lat="43.72023" lon="7.29171">
        <ele>37.63</ele>
        <time>2014-07-06T19:02:24Z</time>
      </trkpt>
      <trkpt lat="43.7192" lon="7.29161">
        <ele>37.15</ele>
        <time>2014-07-06T19:02:40Z</time>
      </trkpt>
      <trkpt lat="43.71901" lon="7.29158">
        <ele>37.15</ele>
        <time>2014-07-06T19:02:43Z</time>
      </trkpt>
      <trkpt lat="43.71895" lon="7.29156">
        <ele>37.15</ele>
        <time>2014-07-06T19:02:44Z</time>
      </trkpt>
      <trkpt lat="43.71889" lon="7.29154">
        <ele>37.15</ele>
        <time>2014-07-06T19:02:45Z</time>
      </trkpt>
      <trkpt lat="43.71877" lon="7.29152">
        <ele>37.15</ele>
        <time>2014-07-06T19:02:47Z</time>
      </trkpt>
      <trkpt lat="43.71871" lon="7.29154">
        <ele>36.67</ele>
        <time>2014-07-06T19:02:48Z</time>
      </trkpt>
      <trkpt lat="43.71798" lon="7.29184">
        <ele>35.71</ele>
        <time>2014-07-06T19:02:59Z</time>
      </trkpt>
      <trkpt lat="43.71791" lon="7.29186">
        <ele>35.23</ele>
        <time>2014-07-06T19:03:00Z</time>
      </trkpt>
      <trkpt lat="43.71785" lon="7.29189">
        <ele>35.23</ele>
        <time>2014-07-06T19:03:01Z</time>
      </trkpt>
      <trkpt lat="43.71744" lon="7.29205">
        <ele>34.74</ele>
        <time>2014-07-06T19:03:11Z</time>
      </trkpt>
      <trkpt lat="43.71739" lon="7.29206">
        <ele>34.74</ele>
        <time>2014-07-06T19:03:14Z</time>
      </trkpt>
      <trkpt lat="43.71732" lon="7.2921">
        <ele>34.26</ele>
        <time>2014-07-06T19:03:16Z</time>
      </trkpt>
      <trkpt lat="43.71718" lon="7.29215">
        <ele>34.74</ele>
        <time>2014-07-06T19:03:19Z</time>
      </trkpt>
      <trkpt lat="43.71713" lon="7.29217">
        <ele>35.23</ele>
        <time>2014-07-06T19:03:20Z</time>
      </trkpt>
      <trkpt lat="43.71708" lon="7.29219">
        <ele>35.23</ele>
        <time>2014-07-06T19:03:21Z</time>
      </trkpt>
      <trkpt lat="43.7164" lon="7.29246">
        <ele>36.19</ele>
        <time>2014-07-06T19:03:32Z</time>
      </trkpt>
      <trkpt lat="43.71558" lon="7.29274">
        <ele>34.26</ele>
        <time>2014-07-06T19:03:45Z</time>
      </trkpt>
      <trkpt lat="43.71551" lon="7.29274">
        <ele>33.78</ele>
        <time>2014-07-06T19:03:46Z</time>
      </trkpt>
      <trkpt lat="43.7146" lon="7.29273">
        <ele>30.9</ele>
        <time>2014-07-06T19:04:00Z</time>
      </trkpt>
      <trkpt lat="43.71381" lon="7.29272">
        <ele>30.9</ele>
        <time>2014-07-06T19:04:11Z</time>
      </trkpt>
      <trkpt lat="43.71289" lon="7.29272">
        <ele>28.98</ele>
        <time>2014-07-06T19:04:25Z</time>
      </trkpt>
      <trkpt lat="43.71207" lon="7.29271">
        <ele>28.5</ele>
        <time>2014-07-06T19:04:38Z</time>
      </trkpt>
      <trkpt lat="43.7115" lon="7.29272">
        <ele>28.02</ele>
        <time>2014-07-06T19:04:47Z</time>
      </trkpt>
      <trkpt lat="43.71144" lon="7.29272">
        <ele>28.02</ele>
        <time>2014-07-06T19:04:48Z</time>
      </trkpt>
      <trkpt lat="43.71113" lon="7.29274">
        <ele>28.02</ele>
        <time>2014-07-06T19:04:57Z</time>
      </trkpt>
      <trkpt lat="43.7111" lon="7.29271">
        <ele>33.3</ele>
        <time>2014-07-06T19:05:22Z</time>
      </trkpt>
      <trkpt lat="43.71106" lon="7.29274">
        <ele>31.86</ele>
        <time>2014-07-06T19:05:30Z</time>
      </trkpt>
      <trkpt lat="43.71105" lon="7.29276">
        <ele>31.38</ele>
        <time>2014-07-06T19:05:31Z</time>
      </trkpt>
      <trkpt lat="43.71103" lon="7.29294">
        <ele>30.42</ele>
        <time>2014-07-06T19:05:37Z</time>
      </trkpt>
      <trkpt lat="43.71101" lon="7.29296">
        <ele>30.42</ele>
        <time>2014-07-06T19:05:38Z</time>
      </trkpt>
      <trkpt lat="43.711" lon="7.29298">
        <ele>30.42</ele>
        <time>2014-07-06T19:05:39Z</time>
      </trkpt>
      <trkpt lat="43.7109" lon="7.2934">
        <ele>28.98</ele>
        <time>2014-07-06T19:05:48Z</time>
      </trkpt>
      <trkpt lat="43.71087" lon="7.2938">
        <ele>28.5</ele>
        <time>2014-07-06T19:05:54Z</time>
      </trkpt>
      <trkpt lat="43.71087" lon="7.29385">
        <ele>28.02</ele>
        <time>2014-07-06T19:05:55Z</time>
      </trkpt>
      <trkpt lat="43.71089" lon="7.29406">
        <ele>28.5</ele>
        <time>2014-07-06T19:06:00Z</time>
      </trkpt>
      <trkpt lat="43.71091" lon="7.29408">
        <ele>28.5</ele>
        <time>2014-07-06T19:06:01Z</time>
      </trkpt>
      <trkpt lat="43.71117" lon="7.29411">
        <ele>28.02</ele>
        <time>2014-07-06T19:06:10Z</time>
      </trkpt>
      <trkpt lat="43.71122" lon="7.29417">
        <ele>27.05</ele>
        <time>2014-07-06T19:06:12Z</time>
      </trkpt>
      <trkpt lat="43.71123" lon="7.29422">
        <ele>26.57</ele>
        <time>2014-07-06T19:06:13Z</time>
      </trkpt>
      <trkpt lat="43.71125" lon="7.29426">
        <ele>26.57</ele>
        <time>2014-07-06T19:06:14Z</time>
      </trkpt>
      <trkpt lat="43.71126" lon="7.29429">
        <ele>26.09</ele>
        <time>2014-07-06T19:06:15Z</time>
      </trkpt>
      <trkpt lat="43.71128" lon="7.29433">
        <ele>25.61</ele>
        <time>2014-07-06T19:06:16Z</time>
      </trkpt>
      <trkpt lat="43.71129" lon="7.29435">
        <ele>25.61</ele>
        <time>2014-07-06T19:06:17Z</time>
      </trkpt>
      <trkpt lat="43.71131" lon="7.29438">
        <ele>25.13</ele>
        <time>2014-07-06T19:06:18Z</time>
      </trkpt>
      <trkpt lat="43.71133" lon="7.29441">
        <ele>25.13</ele>
        <time>2014-07-06T19:06:19Z</time>
      </trkpt>
      <trkpt lat="43.71135" lon="7.29445">
        <ele>25.13</ele>
        <time>2014-07-06T19:06:20Z</time>
      </trkpt>
      <trkpt lat="43.71137" lon="7.29447">
        <ele>24.65</ele>
        <time>2014-07-06T19:06:21Z</time>
      </trkpt>
      <trkpt lat="43.71139" lon="7.29449">
        <ele>24.65</ele>
        <time>2014-07-06T19:06:22Z</time>
      </trkpt>
      <trkpt lat="43.71142" lon="7.2945">
        <ele>24.65</ele>
        <time>2014-07-06T19:06:23Z</time>
      </trkpt>
      <trkpt lat="43.71144" lon="7.29452">
        <ele>24.65</ele>
        <time>2014-07-06T19:06:24Z</time>
      </trkpt>
      <trkpt lat="43.71147" lon="7.29454">
        <ele>24.65</ele>
        <time>2014-07-06T19:06:25Z</time>
      </trkpt>
      <trkpt lat="43.7119" lon="7.29469">
        <ele>28.5</ele>
        <time>2014-07-06T19:06:37Z</time>
      </trkpt>
      <trkpt lat="43.71214" lon="7.2948">
        <ele>30.9</ele>
        <time>2014-07-06T19:06:47Z</time>
      </trkpt>
      <trkpt lat="43.71216" lon="7.29481">
        <ele>30.9</ele>
        <time>2014-07-06T19:06:48Z</time>
      </trkpt>
      <trkpt lat="43.71218" lon="7.29481">
        <ele>31.38</ele>
        <time>2014-07-06T19:06:49Z</time>
      </trkpt>
      <trkpt lat="43.7122" lon="7.29482">
        <ele>31.38</ele>
        <time>2014-07-06T19:06:50Z</time>
      </trkpt>
      <trkpt lat="43.71223" lon="7.29483">
        <ele>31.38</ele>
        <time>2014-07-06T19:06:51Z</time>
      </trkpt>
      <trkpt lat="43.71225" lon="7.29484">
        <ele>31.38</ele>
        <time>2014-07-06T19:06:52Z</time>
      </trkpt>
      <trkpt lat="43.71257" lon="7.29491">
        <ele>32.34</ele>
        <time>2014-07-06T19:07:02Z</time>
      </trkpt>
      <trkpt lat="43.71273" lon="7.29497">
        <ele>34.74</ele>
        <time>2014-07-06T19:07:08Z</time>
      </trkpt>
      <trkpt lat="43.71274" lon="7.29501">
        <ele>34.74</ele>
        <time>2014-07-06T19:07:09Z</time>
      </trkpt>
      <trkpt lat="43.71274" lon="7.29505">
        <ele>35.23</ele>
        <time>2014-07-06T19:07:10Z</time>
      </trkpt>
      <trkpt lat="43.71272" lon="7.29507">
        <ele>35.23</ele>
        <time>2014-07-06T19:07:11Z</time>
      </trkpt>
      <trkpt lat="43.7127" lon="7.29507">
        <ele>35.23</ele>
        <time>2014-07-06T19:07:12Z</time>
      </trkpt>
      <trkpt lat="43.71267" lon="7.29508">
        <ele>35.71</ele>
        <time>2014-07-06T19:07:13Z</time>
      </trkpt>
      <trkpt lat="43.71264" lon="7.29508">
        <ele>35.71</ele>
        <time>2014-07-06T19:07:14Z</time>
      </trkpt>
      <trkpt lat="43.71262" lon="7.29509">
        <ele>36.19</ele>
        <time>2014-07-06T19:07:15Z</time>
      </trkpt>
      <trkpt lat="43.71259" lon="7.29511">
        <ele>36.19</ele>
        <time>2014-07-06T19:07:16Z</time>
      </trkpt>
      <trkpt lat="43.71256" lon="7.29512">
        <ele>35.71</ele>
        <time>2014-07-06T19:07:17Z</time>
      </trkpt>
      <trkpt lat="43.71236" lon="7.29518">
        <ele>34.74</ele>
        <time>2014-07-06T19:07:25Z</time>
      </trkpt>
      <trkpt lat="43.71199" lon="7.29515">
        <ele>40.51</ele>
        <time>2014-07-06T19:07:37Z</time>
      </trkpt>
      <trkpt lat="43.71158" lon="7.29519">
        <ele>42.44</ele>
        <time>2014-07-06T19:07:52Z</time>
      </trkpt>
      <trkpt lat="43.7112" lon="7.29527">
        <ele>42.44</ele>
        <time>2014-07-06T19:08:05Z</time>
      </trkpt>
      <trkpt lat="43.71093" lon="7.29514">
        <ele>46.28</ele>
        <time>2014-07-06T19:08:16Z</time>
      </trkpt>
      <trkpt lat="43.71092" lon="7.29513">
        <ele>46.28</ele>
        <time>2014-07-06T19:08:17Z</time>
      </trkpt>
      <trkpt lat="43.71089" lon="7.29513">
        <ele>47.24</ele>
        <time>2014-07-06T19:08:19Z</time>
      </trkpt>
      <trkpt lat="43.71088" lon="7.29514">
        <ele>47.24</ele>
        <time>2014-07-06T19:08:20Z</time>
      </trkpt>
      <trkpt lat="43.71087" lon="7.29514">
        <ele>47.72</ele>
        <time>2014-07-06T19:08:21Z</time>
      </trkpt>
      <trkpt lat="43.71086" lon="7.29516">
        <ele>47.72</ele>
        <time>2014-07-06T19:08:22Z</time>
      </trkpt>
      <trkpt lat="43.71086" lon="7.29519">
        <ele>47.72</ele>
        <time>2014-07-06T19:08:23Z</time>
      </trkpt>
      <trkpt lat="43.71087" lon="7.29522">
        <ele>47.72</ele>
        <time>2014-07-06T19:08:24Z</time>
      </trkpt>
      <trkpt lat="43.71088" lon="7.29524">
        <ele>47.24</ele>
        <time>2014-07-06T19:08:25Z</time>
      </trkpt>
      <trkpt lat="43.7109" lon="7.29525">
        <ele>47.24</ele>
        <time>2014-07-06T19:08:26Z</time>
      </trkpt>
      <trkpt lat="43.71092" lon="7.29526">
        <ele>47.72</ele>
        <time>2014-07-06T19:08:27Z</time>
      </trkpt>
      <trkpt lat="43.71094" lon="7.29528">
        <ele>48.2</ele>
        <time>2014-07-06T19:08:28Z</time>
      </trkpt>
      <trkpt lat="43.71096" lon="7.29529">
        <ele>47.72</ele>
        <time>2014-07-06T19:08:29Z</time>
      </trkpt>
      <trkpt lat="43.71098" lon="7.29531">
        <ele>47.72</ele>
        <time>2014-07-06T19:08:30Z</time>
      </trkpt>
      <trkpt lat="43.711" lon="7.29532">
        <ele>47.72</ele>
        <time>2014-07-06T19:08:31Z</time>
      </trkpt>
      <trkpt lat="43.71127" lon="7.29547">
        <ele>51.57</ele>
        <time>2014-07-06T19:08:43Z</time>
      </trkpt>
      <trkpt lat="43.71156" lon="7.29561">
        <ele>52.05</ele>
        <time>2014-07-06T19:08:55Z</time>
      </trkpt>
      <trkpt lat="43.7118" lon="7.2957">
        <ele>52.53</ele>
        <time>2014-07-06T19:09:05Z</time>
      </trkpt>
      <trkpt lat="43.71205" lon="7.29581">
        <ele>56.86</ele>
        <time>2014-07-06T19:09:16Z</time>
      </trkpt>
      <trkpt lat="43.71228" lon="7.29589">
        <ele>59.74</ele>
        <time>2014-07-06T19:09:26Z</time>
      </trkpt>
      <trkpt lat="43.71233" lon="7.29588">
        <ele>60.7</ele>
        <time>2014-07-06T19:09:28Z</time>
      </trkpt>
      <trkpt lat="43.71235" lon="7.29589">
        <ele>60.7</ele>
        <time>2014-07-06T19:09:29Z</time>
      </trkpt>
      <trkpt lat="43.71238" lon="7.29589">
        <ele>60.7</ele>
        <time>2014-07-06T19:09:30Z</time>
      </trkpt>
      <trkpt lat="43.7124" lon="7.29589">
        <ele>60.7</ele>
        <time>2014-07-06T19:09:31Z</time>
      </trkpt>
      <trkpt lat="43.71243" lon="7.29589">
        <ele>61.18</ele>
        <time>2014-07-06T19:09:32Z</time>
      </trkpt>
      <trkpt lat="43.71245" lon="7.29589">
        <ele>61.18</ele>
        <time>2014-07-06T19:09:33Z</time>
      </trkpt>
      <trkpt lat="43.71248" lon="7.29589">
        <ele>61.66</ele>
        <time>2014-07-06T19:09:34Z</time>
      </trkpt>
      <trkpt lat="43.71263" lon="7.2959">
        <ele>62.62</ele>
        <time>2014-07-06T19:09:40Z</time>
      </trkpt>
      <trkpt lat="43.71264" lon="7.29591">
        <ele>62.62</ele>
        <time>2014-07-06T19:09:41Z</time>
      </trkpt>
      <trkpt lat="43.71266" lon="7.29591">
        <ele>62.62</ele>
        <time>2014-07-06T19:09:42Z</time>
      </trkpt>
      <trkpt lat="43.71269" lon="7.29592">
        <ele>62.62</ele>
        <time>2014-07-06T19:09:43Z</time>
      </trkpt>
      <trkpt lat="43.71271" lon="7.29592">
        <ele>63.1</ele>
        <time>2014-07-06T19:09:44Z</time>
      </trkpt>
      <trkpt lat="43.71273" lon="7.29593">
        <ele>64.07</ele>
        <time>2014-07-06T19:09:45Z</time>
      </trkpt>
      <trkpt lat="43.71275" lon="7.29593">
        <ele>64.55</ele>
        <time>2014-07-06T19:09:46Z</time>
      </trkpt>
      <trkpt lat="43.71277" lon="7.29594">
        <ele>65.51</ele>
        <time>2014-07-06T19:09:47Z</time>
      </trkpt>
      <trkpt lat="43.71279" lon="7.29594">
        <ele>65.99</ele>
        <time>2014-07-06T19:09:48Z</time>
      </trkpt>
      <trkpt lat="43.71308" lon="7.29609">
        <ele>70.31</ele>
        <time>2014-07-06T19:10:01Z</time>
      </trkpt>
      <trkpt lat="43.71337" lon="7.29625">
        <ele>74.16</ele>
        <time>2014-07-06T19:10:14Z</time>
      </trkpt>
      <trkpt lat="43.71359" lon="7.29636">
        <ele>78</ele>
        <time>2014-07-06T19:10:23Z</time>
      </trkpt>
      <trkpt lat="43.71388" lon="7.29654">
        <ele>80.89</ele>
        <time>2014-07-06T19:10:35Z</time>
      </trkpt>
      <trkpt lat="43.71412" lon="7.29668">
        <ele>82.81</ele>
        <time>2014-07-06T19:10:46Z</time>
      </trkpt>
      <trkpt lat="43.7142" lon="7.29675">
        <ele>83.77</ele>
        <time>2014-07-06T19:10:57Z</time>
      </trkpt>
      <trkpt lat="43.71421" lon="7.29674">
        <ele>83.77</ele>
        <time>2014-07-06T19:11:14Z</time>
      </trkpt>
      <trkpt lat="43.7142" lon="7.29675">
        <ele>84.25</ele>
        <time>2014-07-06T19:11:27Z</time>
      </trkpt>
      <trkpt lat="43.7142" lon="7.29679">
        <ele>84.73</ele>
        <time>2014-07-06T19:11:38Z</time>
      </trkpt>
      <trkpt lat="43.71418" lon="7.29687">
        <ele>86.18</ele>
        <time>2014-07-06T19:11:51Z</time>
      </trkpt>
      <trkpt lat="43.71416" lon="7.29688">
        <ele>86.66</ele>
        <time>2014-07-06T19:12:03Z</time>
      </trkpt>
      <trkpt lat="43.71416" lon="7.29692">
        <ele>87.62</ele>
        <time>2014-07-06T19:12:20Z</time>
      </trkpt>
      <trkpt lat="43.71415" lon="7.29695">
        <ele>89.06</ele>
        <time>2014-07-06T19:12:30Z</time>
      </trkpt>
      <trkpt lat="43.71412" lon="7.29695">
        <ele>90.5</ele>
        <time>2014-07-06T19:12:44Z</time>
      </trkpt>
      <trkpt lat="43.71409" lon="7.29694">
        <ele>91.94</ele>
        <time>2014-07-06T19:12:58Z</time>
      </trkpt>
      <trkpt lat="43.71408" lon="7.29692">
        <ele>92.42</ele>
        <time>2014-07-06T19:13:20Z</time>
      </trkpt>
      <trkpt lat="43.71408" lon="7.29692">
        <ele>93.39</ele>
        <time>2014-07-06T19:13:44Z</time>
      </trkpt>
      <trkpt lat="43.71408" lon="7.29692">
        <ele>93.39</ele>
        <time>2014-07-06T19:14:15Z</time>
      </trkpt>
      <trkpt lat="43.71409" lon="7.29692">
        <ele>92.42</ele>
        <time>2014-07-06T19:14:42Z</time>
      </trkpt>
      <trkpt lat="43.71408" lon="7.29692">
        <ele>92.42</ele>
        <time>2014-07-06T19:15:12Z</time>
      </trkpt>
      <trkpt lat="43.71408" lon="7.29693">
        <ele>92.42</ele>
        <time>2014-07-06T19:15:42Z</time>
      </trkpt>
      <trkpt lat="43.71407" lon="7.29693">
        <ele>92.9</ele>
        <time>2014-07-06T19:16:12Z</time>
      </trkpt>
      <trkpt lat="43.71407" lon="7.29693">
        <ele>93.87</ele>
        <time>2014-07-06T19:16:40Z</time>
      </trkpt>
      <trkpt lat="43.71407" lon="7.29693">
        <ele>93.87</ele>
        <time>2014-07-06T19:17:09Z</time>
      </trkpt>
      <trkpt lat="43.71408" lon="7.29692">
        <ele>93.87</ele>
        <time>2014-07-06T19:17:25Z</time>
      </trkpt>
    </trkseg>
  </trk>
</gpx>